<?xml version='1.0' encoding='UTF-8'?><gpx version="1.1" creator="JPX - https://github.com/jenetics/jpx" xmlns="http://www.topografix.com/GPX/1/1"><trk><trkseg><trkpt lat="-27.40659466017369" lon="-52.30615130115587"><ele>454.99999999999994</ele><time>2026-04-05T18:51:23Z</time></trkpt><trkpt lat="-27.40659000251058" lon="-52.306054811831146"><ele>455.0</ele><time>2026-04-05T18:51:25Z</time></trkpt><trkpt lat="-27.406676060359747" lon="-52.30595021262474"><ele>455.0</ele><time>2026-04-05T18:51:27Z</time></trkpt><trkpt lat="-27.406728315656153" lon="-52.30589761868072"><ele>455.0</ele><time>2026-04-05T18:51:28Z</time></trkpt><trkpt lat="-27.40677525497933" lon="-52.30584296959917"><ele>454.99999999999994</ele><time>2026-04-05T18:51:29Z</time></trkpt><trkpt lat="-27.406823659943097" lon="-52.305779641678185"><ele>455.0</ele><time>2026-04-05T18:51:30Z</time></trkpt><trkpt lat="-27.40687590171779" lon="-52.30571882635447"><ele>455.0</ele><time>2026-04-05T18:51:31Z</time></trkpt><trkpt lat="-27.40693803624828" lon="-52.305658897108884"><ele>455.0</ele><time>2026-04-05T18:51:32Z</time></trkpt><trkpt lat="-27.407008859715447" lon="-52.305596949504064"><ele>455.0</ele><time>2026-04-05T18:51:33Z</time></trkpt><trkpt lat="-27.40708270987879" lon="-52.30551752048355"><ele>455.0</ele><time>2026-04-05T18:51:34Z</time></trkpt><trkpt lat="-27.407154115918747" lon="-52.30544060090005"><ele>455.0</ele><time>2026-04-05T18:51:35Z</time></trkpt><trkpt lat="-27.40723014047116" lon="-52.305361581835264"><ele>455.5</ele><time>2026-04-05T18:51:36Z</time></trkpt><trkpt lat="-27.407303437783206" lon="-52.3052774818334"><ele>456.0</ele><time>2026-04-05T18:51:36.999Z</time></trkpt><trkpt lat="-27.407380792962762" lon="-52.3051921578016"><ele>456.5</ele><time>2026-04-05T18:51:37.999Z</time></trkpt><trkpt lat="-27.407465385213733" lon="-52.30509867865411"><ele>457.0</ele><time>2026-04-05T18:51:38.999Z</time></trkpt><trkpt lat="-27.40755126336136" lon="-52.30500110420739"><ele>457.0</ele><time>2026-04-05T18:51:39.999Z</time></trkpt><trkpt lat="-27.407643405661428" lon="-52.30489988758731"><ele>457.0</ele><time>2026-04-05T18:51:40.999Z</time></trkpt><trkpt lat="-27.40774257295321" lon="-52.304795947068314"><ele>457.0</ele><time>2026-04-05T18:51:41.999Z</time></trkpt><trkpt lat="-27.4078435183101" lon="-52.30469190310627"><ele>457.0</ele><time>2026-04-05T18:51:42.999Z</time></trkpt><trkpt lat="-27.407942508246034" lon="-52.30458380626627"><ele>457.25</ele><time>2026-04-05T18:51:43.999Z</time></trkpt><trkpt lat="-27.408044886881065" lon="-52.30447892166396"><ele>457.5</ele><time>2026-04-05T18:51:44.999Z</time></trkpt><trkpt lat="-27.408156580314603" lon="-52.30438282164738"><ele>457.75</ele><time>2026-04-05T18:51:45.999Z</time></trkpt><trkpt lat="-27.408281388716293" lon="-52.304313950503676"><ele>458.0</ele><time>2026-04-05T18:51:46.999Z</time></trkpt><trkpt lat="-27.408395733329126" lon="-52.304229845254866"><ele>458.0</ele><time>2026-04-05T18:51:47.999Z</time></trkpt><trkpt lat="-27.408517145746004" lon="-52.30417650257551"><ele>458.0</ele><time>2026-04-05T18:51:48.999Z</time></trkpt><trkpt lat="-27.40865060372928" lon="-52.30412143593928"><ele>458.0</ele><time>2026-04-05T18:51:49.999Z</time></trkpt><trkpt lat="-27.40877280233585" lon="-52.304059567798895"><ele>458.0</ele><time>2026-04-05T18:51:50.999Z</time></trkpt><trkpt lat="-27.4089091032295" lon="-52.30403909063978"><ele>458.25</ele><time>2026-04-05T18:51:51.999Z</time></trkpt><trkpt lat="-27.409035360924197" lon="-52.30399443632751"><ele>458.5</ele><time>2026-04-05T18:51:52.999Z</time></trkpt><trkpt lat="-27.409159510298796" lon="-52.30396481700625"><ele>458.75</ele><time>2026-04-05T18:51:53.999Z</time></trkpt><trkpt lat="-27.409284073423144" lon="-52.30395440023363"><ele>459.0</ele><time>2026-04-05T18:51:54.999Z</time></trkpt><trkpt lat="-27.40939502864709" lon="-52.30392926602985"><ele>459.33333333333337</ele><time>2026-04-05T18:51:55.999Z</time></trkpt><trkpt lat="-27.40948071918491" lon="-52.30390985488477"><ele>459.6666666666667</ele><time>2026-04-05T18:51:56.999Z</time></trkpt><trkpt lat="-27.40957282346806" lon="-52.30387022190736"><ele>460.0</ele><time>2026-04-05T18:51:58.999Z</time></trkpt><trkpt lat="-27.409536274789605" lon="-52.30348783816048"><ele>460.0</ele><time>2026-04-05T18:51:59.999Z</time></trkpt><trkpt lat="-27.409528164834775" lon="-52.303366921235295"><ele>460.0</ele><time>2026-04-05T18:52:00.999Z</time></trkpt><trkpt lat="-27.409522084011936" lon="-52.303233091238496"><ele>460.0</ele><time>2026-04-05T18:52:01.999Z</time></trkpt><trkpt lat="-27.409499192136877" lon="-52.30308853782605"><ele>460.0</ele><time>2026-04-05T18:52:02.999Z</time></trkpt><trkpt lat="-27.409505817804042" lon="-52.30293812356626"><ele>461.6</ele><time>2026-04-05T18:52:03.999Z</time></trkpt><trkpt lat="-27.409502510595203" lon="-52.30279031339943"><ele>463.2</ele><time>2026-04-05T18:52:04.999Z</time></trkpt><trkpt lat="-27.409500024423316" lon="-52.30267296877125"><ele>464.79999999999995</ele><time>2026-04-05T18:52:05.999Z</time></trkpt><trkpt lat="-27.4094984756121" lon="-52.30257066858379"><ele>466.4</ele><time>2026-04-05T18:52:06.999Z</time></trkpt><trkpt lat="-27.409498887245334" lon="-52.30247467869067"><ele>468.0</ele><time>2026-04-05T18:52:07.999Z</time></trkpt><trkpt lat="-27.40949133326192" lon="-52.30236136220953"><ele>468.0</ele><time>2026-04-05T18:52:09.999Z</time></trkpt><trkpt lat="-27.409588499981272" lon="-52.30235323964722"><ele>468.0</ele><time>2026-04-05T18:52:32.998Z</time></trkpt><trkpt lat="-27.40963325675716" lon="-52.302287532343726"><ele>468.0</ele><time>2026-04-05T18:52:34.998Z</time></trkpt><trkpt lat="-27.409600000299214" lon="-52.30221546008672"><ele>468.0</ele><time>2026-04-05T18:52:36.998Z</time></trkpt><trkpt lat="-27.40960002525025" lon="-52.30210910629968"><ele>468.0</ele><time>2026-04-05T18:52:38.998Z</time></trkpt><trkpt lat="-27.40958259165182" lon="-52.302025000880164"><ele>468.0</ele><time>2026-04-05T18:52:40.998Z</time></trkpt><trkpt lat="-27.409553552807036" lon="-52.30195883691973"><ele>469.1666666666667</ele><time>2026-04-05T18:52:42.998Z</time></trkpt><trkpt lat="-27.40951085249497" lon="-52.30188422986939"><ele>470.33333333333337</ele><time>2026-04-05T18:52:44.998Z</time></trkpt><trkpt lat="-27.40947859373035" lon="-52.30181301624296"><ele>471.5</ele><time>2026-04-05T18:52:47.998Z</time></trkpt><trkpt lat="-27.409509456159203" lon="-52.30172717063359"><ele>472.6666666666667</ele><time>2026-04-05T18:52:58Z</time></trkpt><trkpt lat="-27.409478102956854" lon="-52.30162079563641"><ele>473.83333333333337</ele><time>2026-04-05T18:53:00Z</time></trkpt><trkpt lat="-27.409551870051153" lon="-52.30160169963667"><ele>475.0</ele><time>2026-04-05T18:53:03Z</time></trkpt><trkpt lat="-27.409601851022092" lon="-52.30153204480911"><ele>475.0</ele><time>2026-04-05T18:53:05Z</time></trkpt><trkpt lat="-27.409591695059877" lon="-52.30143918320733"><ele>475.0</ele><time>2026-04-05T18:53:06Z</time></trkpt><trkpt lat="-27.409595577008062" lon="-52.301324372499884"><ele>475.0</ele><time>2026-04-05T18:53:07Z</time></trkpt><trkpt lat="-27.409594629899185" lon="-52.30119897132833"><ele>475.0</ele><time>2026-04-05T18:53:08Z</time></trkpt><trkpt lat="-27.40960163849398" lon="-52.301057304998785"><ele>475.0</ele><time>2026-04-05T18:53:09Z</time></trkpt><trkpt lat="-27.409607401125545" lon="-52.30095422401782"><ele>478.00000000000006</ele><time>2026-04-05T18:53:10Z</time></trkpt><trkpt lat="-27.40959505029217" lon="-52.30088032165341"><ele>481.0</ele><time>2026-04-05T18:53:12Z</time></trkpt><trkpt lat="-27.40958422643981" lon="-52.300761555520936"><ele>484.0</ele><time>2026-04-05T18:53:16Z</time></trkpt><trkpt lat="-27.409526192046243" lon="-52.300731824142574"><ele>487.0</ele><time>2026-04-05T18:53:19Z</time></trkpt><trkpt lat="-27.409515005835797" lon="-52.30060958772959"><ele>490.00000000000006</ele><time>2026-04-05T18:53:21Z</time></trkpt><trkpt lat="-27.40950511706478" lon="-52.30051265599503"><ele>493.0</ele><time>2026-04-05T18:53:23Z</time></trkpt><trkpt lat="-27.4094768597132" lon="-52.300433988475596"><ele>496.2857142857143</ele><time>2026-04-05T18:53:29Z</time></trkpt><trkpt lat="-27.409430976583224" lon="-52.30036218340694"><ele>499.57142857142856</ele><time>2026-04-05T18:53:42.999Z</time></trkpt><trkpt lat="-27.409434223461155" lon="-52.30027010054541"><ele>502.85714285714283</ele><time>2026-04-05T18:53:44.999Z</time></trkpt><trkpt lat="-27.40942066167033" lon="-52.300198444513015"><ele>506.1428571428571</ele><time>2026-04-05T18:53:48.999Z</time></trkpt><trkpt lat="-27.40943187753669" lon="-52.30012340816305"><ele>509.42857142857144</ele><time>2026-04-05T18:53:50.999Z</time></trkpt><trkpt lat="-27.409477138657323" lon="-52.30006914923923"><ele>512.7142857142857</ele><time>2026-04-05T18:54:01.999Z</time></trkpt><trkpt lat="-27.40940133070739" lon="-52.30007829181659"><ele>516.0</ele><time>2026-04-05T18:54:32.998Z</time></trkpt><trkpt lat="-27.409335326024557" lon="-52.300069727806466"><ele>516.0</ele><time>2026-04-05T18:54:35.998Z</time></trkpt><trkpt lat="-27.409247137248915" lon="-52.300104075577124"><ele>516.0</ele><time>2026-04-05T18:54:37.998Z</time></trkpt><trkpt lat="-27.409148194956124" lon="-52.30015743610233"><ele>516.0</ele><time>2026-04-05T18:54:39.998Z</time></trkpt><trkpt lat="-27.409067601125106" lon="-52.30018816709529"><ele>516.0</ele><time>2026-04-05T18:54:40.998Z</time></trkpt><trkpt lat="-27.40899136723615" lon="-52.300208922793615"><ele>516.0</ele><time>2026-04-05T18:54:41.998Z</time></trkpt><trkpt lat="-27.40891235516544" lon="-52.30021840047296"><ele>516.0</ele><time>2026-04-05T18:54:42.998Z</time></trkpt><trkpt lat="-27.40883231347636" lon="-52.30023375295572"><ele>517.3333333333334</ele><time>2026-04-05T18:54:43.998Z</time></trkpt><trkpt lat="-27.408768187993" lon="-52.300247118571285"><ele>518.6666666666666</ele><time>2026-04-05T18:54:44.998Z</time></trkpt><trkpt lat="-27.408659397348558" lon="-52.300242750270115"><ele>520.0</ele><time>2026-04-05T18:54:46.998Z</time></trkpt><trkpt lat="-27.408573888615877" lon="-52.30022970563919"><ele>521.3333333333333</ele><time>2026-04-05T18:54:48.998Z</time></trkpt><trkpt lat="-27.40854777044519" lon="-52.300145355929025"><ele>522.6666666666666</ele><time>2026-04-05T18:54:57Z</time></trkpt><trkpt lat="-27.408528195996592" lon="-52.30007578724621"><ele>524.0</ele><time>2026-04-05T18:54:59Z</time></trkpt><trkpt lat="-27.408529139029405" lon="-52.299998928809586"><ele>524.0</ele><time>2026-04-05T18:55:01Z</time></trkpt><trkpt lat="-27.408602694290725" lon="-52.29990064153249"><ele>524.0</ele><time>2026-04-05T18:55:04Z</time></trkpt><trkpt lat="-27.40865486983878" lon="-52.299835990111134"><ele>524.0</ele><time>2026-04-05T18:55:05Z</time></trkpt><trkpt lat="-27.408740687818415" lon="-52.29975054877169"><ele>524.0</ele><time>2026-04-05T18:55:07Z</time></trkpt><trkpt lat="-27.408803993351523" lon="-52.299683462751936"><ele>524.0</ele><time>2026-04-05T18:55:10Z</time></trkpt><trkpt lat="-27.408833889980595" lon="-52.29961715396161"><ele>523.5</ele><time>2026-04-05T18:55:12Z</time></trkpt><trkpt lat="-27.408827851093616" lon="-52.299543481043635"><ele>523.0</ele><time>2026-04-05T18:55:14Z</time></trkpt><trkpt lat="-27.40885783673178" lon="-52.299451854215306"><ele>522.5</ele><time>2026-04-05T18:55:17Z</time></trkpt><trkpt lat="-27.408905011863485" lon="-52.299378106659425"><ele>522.0</ele><time>2026-04-05T18:55:21Z</time></trkpt><trkpt lat="-27.409001168456502" lon="-52.29938617146713"><ele>521.5</ele><time>2026-04-05T18:55:23Z</time></trkpt><trkpt lat="-27.409109340763216" lon="-52.29941716722048"><ele>521.0</ele><time>2026-04-05T18:55:25Z</time></trkpt><trkpt lat="-27.40919244682038" lon="-52.299396676530876"><ele>521.0</ele><time>2026-04-05T18:55:26Z</time></trkpt><trkpt lat="-27.409309389687646" lon="-52.29937195394632"><ele>521.0</ele><time>2026-04-05T18:55:28Z</time></trkpt><trkpt lat="-27.4093810786137" lon="-52.299379335473574"><ele>521.0</ele><time>2026-04-05T18:55:29Z</time></trkpt><trkpt lat="-27.409476656928046" lon="-52.299391804374224"><ele>521.0</ele><time>2026-04-05T18:55:31Z</time></trkpt><trkpt lat="-27.409486903779214" lon="-52.29932105269996"><ele>521.0</ele><time>2026-04-05T18:55:36Z</time></trkpt><trkpt lat="-27.409463391710283" lon="-52.29924365388014"><ele>521.0</ele><time>2026-04-05T18:55:39Z</time></trkpt><trkpt lat="-27.409444792429962" lon="-52.299175133329236"><ele>521.0</ele><time>2026-04-05T18:55:42Z</time></trkpt><trkpt lat="-27.409467186220475" lon="-52.29910578198057"><ele>521.0</ele><time>2026-04-05T18:55:44.999Z</time></trkpt><trkpt lat="-27.409531517015886" lon="-52.29906046158016"><ele>521.0</ele><time>2026-04-05T18:55:48.999Z</time></trkpt><trkpt lat="-27.40959930322274" lon="-52.299012266636495"><ele>521.0</ele><time>2026-04-05T18:55:52.999Z</time></trkpt><trkpt lat="-27.409637792032466" lon="-52.29895178840185"><ele>521.0</ele><time>2026-04-05T18:56:02.999Z</time></trkpt><trkpt lat="-27.409700300678495" lon="-52.29894112418276"><ele>521.0</ele><time>2026-04-05T18:56:17.999Z</time></trkpt><trkpt lat="-27.40970173023974" lon="-52.29902643901637"><ele>521.0</ele><time>2026-04-05T18:56:21.999Z</time></trkpt><trkpt lat="-27.409721652740824" lon="-52.299095501548"><ele>520.4</ele><time>2026-04-05T18:56:25.999Z</time></trkpt><trkpt lat="-27.409708233772268" lon="-52.299173525113765"><ele>519.8</ele><time>2026-04-05T18:56:29.998Z</time></trkpt><trkpt lat="-27.409761777888175" lon="-52.2992392164796"><ele>519.1999999999999</ele><time>2026-04-05T18:56:33.998Z</time></trkpt><trkpt lat="-27.40984605251903" lon="-52.29926659729317"><ele>518.6</ele><time>2026-04-05T18:56:35.998Z</time></trkpt><trkpt lat="-27.409998206399198" lon="-52.29932751445253"><ele>518.0</ele><time>2026-04-05T18:56:51.998Z</time></trkpt><trkpt lat="-27.41010287805939" lon="-52.29932804166268"><ele>518.0</ele><time>2026-04-05T18:56:52.998Z</time></trkpt><trkpt lat="-27.410191284577557" lon="-52.29932506883375"><ele>518.0</ele><time>2026-04-05T18:56:53.998Z</time></trkpt><trkpt lat="-27.41026123981545" lon="-52.299328648997"><ele>518.0</ele><time>2026-04-05T18:56:54.998Z</time></trkpt><trkpt lat="-27.410359073815492" lon="-52.299324006186154"><ele>518.0</ele><time>2026-04-05T18:56:55.998Z</time></trkpt><trkpt lat="-27.41046368072158" lon="-52.299326881754844"><ele>518.0</ele><time>2026-04-05T18:56:56.998Z</time></trkpt><trkpt lat="-27.41056222723608" lon="-52.299329444286975"><ele>516.25</ele><time>2026-04-05T18:56:57.998Z</time></trkpt><trkpt lat="-27.410692099320233" lon="-52.29934038883633"><ele>514.5</ele><time>2026-04-05T18:56:58.998Z</time></trkpt><trkpt lat="-27.4108428891369" lon="-52.29934453696134"><ele>512.75</ele><time>2026-04-05T18:56:59.998Z</time></trkpt><trkpt lat="-27.410957916243657" lon="-52.29935454462637"><ele>511.0</ele><time>2026-04-05T18:57:00.998Z</time></trkpt><trkpt lat="-27.411044590634717" lon="-52.29934929051275"><ele>511.00000000000006</ele><time>2026-04-05T18:57:02Z</time></trkpt><trkpt lat="-27.41110777852884" lon="-52.29934486995834"><ele>511.0</ele><time>2026-04-05T18:57:03Z</time></trkpt><trkpt lat="-27.41117356880085" lon="-52.29933455969248"><ele>511.0</ele><time>2026-04-05T18:57:05Z</time></trkpt><trkpt lat="-27.41126869076447" lon="-52.29934204087667"><ele>511.0</ele><time>2026-04-05T18:57:08Z</time></trkpt><trkpt lat="-27.41135898098359" lon="-52.29934782059058"><ele>511.00000000000006</ele><time>2026-04-05T18:57:11Z</time></trkpt><trkpt lat="-27.411479065036836" lon="-52.29939677217815"><ele>511.0</ele><time>2026-04-05T18:57:13Z</time></trkpt><trkpt lat="-27.411560266850348" lon="-52.29943202862992"><ele>510.6666666666667</ele><time>2026-04-05T18:57:15Z</time></trkpt><trkpt lat="-27.41160949674334" lon="-52.299386524782605"><ele>510.33333333333337</ele><time>2026-04-05T18:57:19Z</time></trkpt><trkpt lat="-27.411688004507873" lon="-52.299359686176075"><ele>510.0</ele><time>2026-04-05T18:57:23Z</time></trkpt><trkpt lat="-27.411780114111856" lon="-52.29937405044966"><ele>509.66666666666663</ele><time>2026-04-05T18:57:25Z</time></trkpt><trkpt lat="-27.411859627186768" lon="-52.29939464554993"><ele>509.3333333333333</ele><time>2026-04-05T18:57:28Z</time></trkpt><trkpt lat="-27.411931772264353" lon="-52.299388680278476"><ele>509.0</ele><time>2026-04-05T18:57:30Z</time></trkpt><trkpt lat="-27.41198571259067" lon="-52.2993367933965"><ele>508.99999999999994</ele><time>2026-04-05T18:57:33Z</time></trkpt><trkpt lat="-27.412018323037096" lon="-52.299255096914216"><ele>509.0</ele><time>2026-04-05T18:57:38Z</time></trkpt><trkpt lat="-27.41204624719529" lon="-52.2991684507846"><ele>509.0</ele><time>2026-04-05T18:57:41Z</time></trkpt><trkpt lat="-27.41199952718191" lon="-52.29910711562189"><ele>509.0</ele><time>2026-04-05T18:57:44Z</time></trkpt><trkpt lat="-27.41200589240615" lon="-52.29902127072047"><ele>508.99999999999994</ele><time>2026-04-05T18:57:47Z</time></trkpt><trkpt lat="-27.411991290795598" lon="-52.298949382545736"><ele>509.0</ele><time>2026-04-05T18:57:49Z</time></trkpt><trkpt lat="-27.41206016648551" lon="-52.2988706531573"><ele>506.49999999999994</ele><time>2026-04-05T18:57:51.999Z</time></trkpt><trkpt lat="-27.412143067079207" lon="-52.29884011877936"><ele>504.0</ele><time>2026-04-05T18:57:53.999Z</time></trkpt><trkpt lat="-27.412209585138992" lon="-52.29881729576515"><ele>501.5</ele><time>2026-04-05T18:57:56.999Z</time></trkpt><trkpt lat="-27.41227381718028" lon="-52.29877563457808"><ele>499.0</ele><time>2026-04-05T18:57:59.999Z</time></trkpt><trkpt lat="-27.41234060129508" lon="-52.298743209930514"><ele>496.49999999999994</ele><time>2026-04-05T18:58:02.999Z</time></trkpt><trkpt lat="-27.4123460218042" lon="-52.2986677437925"><ele>494.0</ele><time>2026-04-05T18:58:04.999Z</time></trkpt><trkpt lat="-27.41241698345262" lon="-52.2986023554353"><ele>493.99999999999994</ele><time>2026-04-05T18:58:07.999Z</time></trkpt><trkpt lat="-27.412447764757925" lon="-52.29850111753806"><ele>494.0</ele><time>2026-04-05T18:58:09.999Z</time></trkpt><trkpt lat="-27.41246547018109" lon="-52.298398295241434"><ele>494.0</ele><time>2026-04-05T18:58:12.999Z</time></trkpt><trkpt lat="-27.412478601584727" lon="-52.29831887996374"><ele>494.0</ele><time>2026-04-05T18:58:15.999Z</time></trkpt><trkpt lat="-27.41249067601339" lon="-52.29823307687041"><ele>493.99999999999994</ele><time>2026-04-05T18:58:17.999Z</time></trkpt><trkpt lat="-27.412577966592174" lon="-52.298203690874516"><ele>494.0</ele><time>2026-04-05T18:58:19.999Z</time></trkpt><trkpt lat="-27.4126139061324" lon="-52.29810328522974"><ele>492.16666666666663</ele><time>2026-04-05T18:58:22.999Z</time></trkpt><trkpt lat="-27.412704349235042" lon="-52.29804672778846"><ele>490.3333333333333</ele><time>2026-04-05T18:58:24.999Z</time></trkpt><trkpt lat="-27.412757396666006" lon="-52.29794628969371"><ele>488.5</ele><time>2026-04-05T18:58:28.999Z</time></trkpt><trkpt lat="-27.41279162363885" lon="-52.29785733965112"><ele>486.66666666666663</ele><time>2026-04-05T18:58:31.999Z</time></trkpt><trkpt lat="-27.41281811795888" lon="-52.29776897871747"><ele>484.8333333333333</ele><time>2026-04-05T18:58:34.999Z</time></trkpt><trkpt lat="-27.412845009325952" lon="-52.29770240981422"><ele>483.0</ele><time>2026-04-05T18:58:54.998Z</time></trkpt><trkpt lat="-27.41292859152375" lon="-52.297703364912465"><ele>486.3333333333333</ele><time>2026-04-05T18:58:56.998Z</time></trkpt><trkpt lat="-27.41302329296223" lon="-52.2976969695461"><ele>489.66666666666663</ele><time>2026-04-05T18:59:00.998Z</time></trkpt><trkpt lat="-27.413103174238472" lon="-52.297733258743754"><ele>493.0</ele><time>2026-04-05T18:59:02.998Z</time></trkpt><trkpt lat="-27.41317701071718" lon="-52.29777826503028"><ele>496.3333333333333</ele><time>2026-04-05T18:59:05.998Z</time></trkpt><trkpt lat="-27.413229516751986" lon="-52.29785776599082"><ele>499.66666666666663</ele><time>2026-04-05T18:59:25Z</time></trkpt><trkpt lat="-27.413321220802636" lon="-52.29783050295135"><ele>503.0</ele><time>2026-04-05T18:59:27Z</time></trkpt><trkpt lat="-27.413387804738345" lon="-52.29784009365995"><ele>502.99999999999994</ele><time>2026-04-05T18:59:28Z</time></trkpt><trkpt lat="-27.413480365785862" lon="-52.297867763531436"><ele>503.0</ele><time>2026-04-05T18:59:30Z</time></trkpt><trkpt lat="-27.413557635227267" lon="-52.29787886606869"><ele>503.0</ele><time>2026-04-05T18:59:31Z</time></trkpt><trkpt lat="-27.413646133565965" lon="-52.29788417698384"><ele>503.0</ele><time>2026-04-05T18:59:32Z</time></trkpt><trkpt lat="-27.413750434348508" lon="-52.29788952101927"><ele>502.99999999999994</ele><time>2026-04-05T18:59:33Z</time></trkpt><trkpt lat="-27.41383279760668" lon="-52.29788362234579"><ele>503.0</ele><time>2026-04-05T18:59:34Z</time></trkpt><trkpt lat="-27.413897689603967" lon="-52.2978716285236"><ele>506.49999999999994</ele><time>2026-04-05T18:59:35Z</time></trkpt><trkpt lat="-27.41400172539031" lon="-52.297841080242314"><ele>510.0</ele><time>2026-04-05T18:59:37Z</time></trkpt><trkpt lat="-27.41407140474654" lon="-52.29778954198767"><ele>513.5</ele><time>2026-04-05T18:59:40Z</time></trkpt><trkpt lat="-27.41415990288232" lon="-52.2977456394052"><ele>517.0</ele><time>2026-04-05T19:00:48.998Z</time></trkpt><trkpt lat="-27.414226853902264" lon="-52.297753238993145"><ele>520.5</ele><time>2026-04-05T19:00:49.998Z</time></trkpt><trkpt lat="-27.414302120385376" lon="-52.29775553004005"><ele>524.0</ele><time>2026-04-05T19:00:50.998Z</time></trkpt><trkpt lat="-27.414373604856696" lon="-52.297759139371756"><ele>524.0</ele><time>2026-04-05T19:00:51.998Z</time></trkpt><trkpt lat="-27.41444974715602" lon="-52.297763961668885"><ele>524.0</ele><time>2026-04-05T19:00:52.998Z</time></trkpt><trkpt lat="-27.414563605035486" lon="-52.29776675701165"><ele>524.0</ele><time>2026-04-05T19:00:54.998Z</time></trkpt><trkpt lat="-27.41462585840244" lon="-52.297788789381954"><ele>524.0</ele><time>2026-04-05T19:00:55.998Z</time></trkpt><trkpt lat="-27.414693546406593" lon="-52.29783036840408"><ele>524.0</ele><time>2026-04-05T19:00:56.998Z</time></trkpt><trkpt lat="-27.414738848257425" lon="-52.297884072229365"><ele>524.0</ele><time>2026-04-05T19:00:57.998Z</time></trkpt><trkpt lat="-27.414784579508254" lon="-52.29796079231522"><ele>526.8333333333333</ele><time>2026-04-05T19:00:58.998Z</time></trkpt><trkpt lat="-27.4148279914053" lon="-52.298024306287196"><ele>529.6666666666666</ele><time>2026-04-05T19:00:59.998Z</time></trkpt><trkpt lat="-27.414869195778476" lon="-52.29807882939805"><ele>532.5</ele><time>2026-04-05T19:01:00.998Z</time></trkpt><trkpt lat="-27.41487142864292" lon="-52.29823221441347"><ele>535.3333333333334</ele><time>2026-04-05T19:01:02.998Z</time></trkpt><trkpt lat="-27.414842779293522" lon="-52.29832258139333"><ele>538.1666666666667</ele><time>2026-04-05T19:01:03.998Z</time></trkpt><trkpt lat="-27.414808736977125" lon="-52.29838490119866"><ele>541.0</ele><time>2026-04-05T19:01:04.998Z</time></trkpt><trkpt lat="-27.414746913493026" lon="-52.298447474166714"><ele>543.0</ele><time>2026-04-05T19:01:05.998Z</time></trkpt><trkpt lat="-27.414675739688633" lon="-52.29852151532094"><ele>545.0</ele><time>2026-04-05T19:01:07.998Z</time></trkpt><trkpt lat="-27.414624554270087" lon="-52.298583357891324"><ele>547.0</ele><time>2026-04-05T19:01:08.998Z</time></trkpt><trkpt lat="-27.414586434132865" lon="-52.29864009570158"><ele>549.0</ele><time>2026-04-05T19:01:09.998Z</time></trkpt><trkpt lat="-27.414286444125064" lon="-52.298655563231904"><ele>543.75</ele><time>2026-04-05T19:01:10.998Z</time></trkpt><trkpt lat="-27.41418729747683" lon="-52.29867977208419"><ele>538.5</ele><time>2026-04-05T19:01:11.998Z</time></trkpt><trkpt lat="-27.414098361089064" lon="-52.29867584434916"><ele>533.25</ele><time>2026-04-05T19:01:12.998Z</time></trkpt><trkpt lat="-27.413940348848254" lon="-52.2987646724103"><ele>528.0</ele><time>2026-04-05T19:01:15Z</time></trkpt><trkpt lat="-27.413845052653688" lon="-52.29881887566315"><ele>528.5</ele><time>2026-04-05T19:01:16Z</time></trkpt><trkpt lat="-27.413789294985076" lon="-52.29886948379737"><ele>529.0</ele><time>2026-04-05T19:01:17Z</time></trkpt><trkpt lat="-27.41381366491752" lon="-52.298959364866946"><ele>529.5</ele><time>2026-04-05T19:01:20Z</time></trkpt><trkpt lat="-27.413878688127124" lon="-52.29900371036408"><ele>530.0</ele><time>2026-04-05T19:01:22Z</time></trkpt><trkpt lat="-27.413945599589056" lon="-52.2990201170198"><ele>530.5</ele><time>2026-04-05T19:01:24Z</time></trkpt><trkpt lat="-27.414026309668554" lon="-52.29905523828356"><ele>531.0</ele><time>2026-04-05T19:01:26Z</time></trkpt><trkpt lat="-27.414138483570934" lon="-52.2990289271655"><ele>531.0</ele><time>2026-04-05T19:01:27Z</time></trkpt><trkpt lat="-27.414229982292696" lon="-52.29903579248172"><ele>531.0</ele><time>2026-04-05T19:01:29Z</time></trkpt><trkpt lat="-27.41432639199983" lon="-52.29891935913743"><ele>531.0</ele><time>2026-04-05T19:01:33Z</time></trkpt><trkpt lat="-27.414355624549486" lon="-52.29881658879357"><ele>531.0</ele><time>2026-04-05T19:01:35Z</time></trkpt><trkpt lat="-27.414416355485134" lon="-52.29875912068572"><ele>531.0</ele><time>2026-04-05T19:01:37Z</time></trkpt><trkpt lat="-27.41449794278001" lon="-52.298755556606615"><ele>531.0</ele><time>2026-04-05T19:01:39Z</time></trkpt><trkpt lat="-27.414579762869593" lon="-52.298763950972834"><ele>531.0</ele><time>2026-04-05T19:01:44Z</time></trkpt><trkpt lat="-27.41460647831842" lon="-52.29885194674623"><ele>531.0</ele><time>2026-04-05T19:01:46Z</time></trkpt><trkpt lat="-27.414642531070037" lon="-52.29892665277292"><ele>531.0</ele><time>2026-04-05T19:01:49Z</time></trkpt><trkpt lat="-27.414669988530704" lon="-52.298991439066306"><ele>531.0</ele><time>2026-04-05T19:01:51Z</time></trkpt><trkpt lat="-27.414684384946224" lon="-52.29906333067838"><ele>531.0</ele><time>2026-04-05T19:01:56Z</time></trkpt><trkpt lat="-27.41475446837958" lon="-52.29903105795705"><ele>531.0</ele><time>2026-04-05T19:02:12.999Z</time></trkpt><trkpt lat="-27.41470652863939" lon="-52.29909345609494"><ele>533.5714285714286</ele><time>2026-04-05T19:02:19.999Z</time></trkpt><trkpt lat="-27.414720180437893" lon="-52.29902229162324"><ele>536.1428571428572</ele><time>2026-04-05T19:05:14.998Z</time></trkpt><trkpt lat="-27.414781934938755" lon="-52.298973368289985"><ele>538.7142857142858</ele><time>2026-04-05T19:08:57.998Z</time></trkpt><trkpt lat="-27.414753529949976" lon="-52.298904973253364"><ele>541.2857142857143</ele><time>2026-04-05T19:09:01.998Z</time></trkpt><trkpt lat="-27.414730899658593" lon="-52.29883831990578"><ele>543.8571428571429</ele><time>2026-04-05T19:09:04.998Z</time></trkpt><trkpt lat="-27.414689977622018" lon="-52.298766547370036"><ele>546.4285714285714</ele><time>2026-04-05T19:09:08.998Z</time></trkpt><trkpt lat="-27.414715150502765" lon="-52.29869003740838"><ele>549.0</ele><time>2026-04-05T19:09:10.998Z</time></trkpt><trkpt lat="-27.41473391961928" lon="-52.29862199030728"><ele>549.0</ele><time>2026-04-05T19:09:13.998Z</time></trkpt><trkpt lat="-27.414776433638483" lon="-52.29853745277289"><ele>549.0</ele><time>2026-04-05T19:09:16.998Z</time></trkpt><trkpt lat="-27.414810189106827" lon="-52.29846648574541"><ele>549.0</ele><time>2026-04-05T19:09:19.998Z</time></trkpt><trkpt lat="-27.41486570667674" lon="-52.29841112433463"><ele>549.0</ele><time>2026-04-05T19:09:23.998Z</time></trkpt><trkpt lat="-27.41491299472053" lon="-52.298345719384464"><ele>549.0</ele><time>2026-04-05T19:09:27.998Z</time></trkpt><trkpt lat="-27.41490609181675" lon="-52.298253398203514"><ele>549.0</ele><time>2026-04-05T19:09:31.998Z</time></trkpt><trkpt lat="-27.414905122060688" lon="-52.29818172158978"><ele>549.0</ele><time>2026-04-05T19:09:39.998Z</time></trkpt><trkpt lat="-27.414863747162805" lon="-52.29812797445688"><ele>549.0</ele><time>2026-04-05T19:10:04.999Z</time></trkpt><trkpt lat="-27.414931758894124" lon="-52.29807509042294"><ele>549.0</ele><time>2026-04-05T19:10:30.999Z</time></trkpt><trkpt lat="-27.415035129079197" lon="-52.29806144286377"><ele>549.0</ele><time>2026-04-05T19:10:31.999Z</time></trkpt><trkpt lat="-27.415101524014865" lon="-52.29805449032301"><ele>549.0</ele><time>2026-04-05T19:10:32.999Z</time></trkpt><trkpt lat="-27.415150695271127" lon="-52.29798147378211"><ele>549.0</ele><time>2026-04-05T19:10:33.999Z</time></trkpt><trkpt lat="-27.41526232382385" lon="-52.29795083466776"><ele>550.1666666666666</ele><time>2026-04-05T19:10:35.999Z</time></trkpt><trkpt lat="-27.415335172407683" lon="-52.297972405382325"><ele>551.3333333333334</ele><time>2026-04-05T19:10:38.999Z</time></trkpt><trkpt lat="-27.415395524376326" lon="-52.29792406992194"><ele>552.5</ele><time>2026-04-05T19:14:56Z</time></trkpt><trkpt lat="-27.41543227473087" lon="-52.29783916741199"><ele>553.6666666666667</ele><time>2026-04-05T19:16:14Z</time></trkpt><trkpt lat="-27.415542881339032" lon="-52.29781850220105"><ele>554.8333333333334</ele><time>2026-04-05T19:16:18Z</time></trkpt><trkpt lat="-27.415612463921935" lon="-52.297768138853854"><ele>556.0</ele><time>2026-04-05T19:16:19Z</time></trkpt><trkpt lat="-27.415698710319155" lon="-52.29773923284202"><ele>556.0</ele><time>2026-04-05T19:16:21Z</time></trkpt><trkpt lat="-27.41578450632824" lon="-52.29772146838576"><ele>556.0</ele><time>2026-04-05T19:16:24Z</time></trkpt><trkpt lat="-27.415852285477055" lon="-52.29771907315455"><ele>556.0</ele><time>2026-04-05T19:16:26Z</time></trkpt><trkpt lat="-27.415926997966853" lon="-52.297735182448164"><ele>556.0</ele><time>2026-04-05T19:16:28Z</time></trkpt><trkpt lat="-27.415940267566825" lon="-52.297866946196976"><ele>556.0</ele><time>2026-04-05T19:16:30Z</time></trkpt><trkpt lat="-27.415934907242963" lon="-52.297983683589095"><ele>557.25</ele><time>2026-04-05T19:16:31Z</time></trkpt><trkpt lat="-27.415928804446875" lon="-52.298135466645505"><ele>558.5</ele><time>2026-04-05T19:16:32Z</time></trkpt><trkpt lat="-27.41593485526831" lon="-52.298323428954056"><ele>559.75</ele><time>2026-04-05T19:16:33Z</time></trkpt><trkpt lat="-27.41594145323628" lon="-52.29844732794216"><ele>561.0</ele><time>2026-04-05T19:16:34Z</time></trkpt><trkpt lat="-27.41594004159921" lon="-52.2986132803747"><ele>561.0</ele><time>2026-04-05T19:16:35Z</time></trkpt><trkpt lat="-27.415941046525383" lon="-52.29875018145579"><ele>561.0</ele><time>2026-04-05T19:16:36Z</time></trkpt><trkpt lat="-27.415941303169614" lon="-52.29883991498999"><ele>561.0</ele><time>2026-04-05T19:16:37Z</time></trkpt><trkpt lat="-27.41594318633133" lon="-52.298916616638365"><ele>561.0</ele><time>2026-04-05T19:16:38Z</time></trkpt><trkpt lat="-27.415951117104314" lon="-52.29898878167028"><ele>561.0</ele><time>2026-04-05T19:16:39Z</time></trkpt><trkpt lat="-27.4159424038955" lon="-52.29911571136954"><ele>561.0</ele><time>2026-04-05T19:16:41Z</time></trkpt><trkpt lat="-27.41595025294004" lon="-52.299227859380586"><ele>561.1666666666666</ele><time>2026-04-05T19:16:43Z</time></trkpt><trkpt lat="-27.41595605263536" lon="-52.29936955645573"><ele>561.3333333333334</ele><time>2026-04-05T19:16:45Z</time></trkpt><trkpt lat="-27.415960539744407" lon="-52.29949483073804"><ele>561.5</ele><time>2026-04-05T19:16:47Z</time></trkpt><trkpt lat="-27.41596516340521" lon="-52.29956671882578"><ele>561.6666666666667</ele><time>2026-04-05T19:16:48Z</time></trkpt><trkpt lat="-27.415966228222608" lon="-52.29964024177732"><ele>561.8333333333334</ele><time>2026-04-05T19:16:49Z</time></trkpt><trkpt lat="-27.415966229873323" lon="-52.29971687011816"><ele>562.0</ele><time>2026-04-05T19:16:50Z</time></trkpt><trkpt lat="-27.41596180972302" lon="-52.299793554795656"><ele>561.4</ele><time>2026-04-05T19:16:51Z</time></trkpt><trkpt lat="-27.4159623415934" lon="-52.29987277810412"><ele>560.8000000000001</ele><time>2026-04-05T19:16:52Z</time></trkpt><trkpt lat="-27.415965217572683" lon="-52.299951105438225"><ele>560.2</ele><time>2026-04-05T19:16:53Z</time></trkpt><trkpt lat="-27.415969896612165" lon="-52.300078488324544"><ele>559.6</ele><time>2026-04-05T19:16:55Z</time></trkpt><trkpt lat="-27.415972045497767" lon="-52.30019679498598"><ele>559.0</ele><time>2026-04-05T19:16:57Z</time></trkpt><trkpt lat="-27.415973654920666" lon="-52.300315700018245"><ele>559.0</ele><time>2026-04-05T19:16:59Z</time></trkpt><trkpt lat="-27.415969784775445" lon="-52.30039396247945"><ele>559.0</ele><time>2026-04-05T19:17:00Z</time></trkpt><trkpt lat="-27.41592387973319" lon="-52.30049018967675"><ele>559.0</ele><time>2026-04-05T19:17:02Z</time></trkpt><trkpt lat="-27.415799597947952" lon="-52.300589008417944"><ele>559.0</ele><time>2026-04-05T19:17:04Z</time></trkpt><trkpt lat="-27.415736734591142" lon="-52.30062627147038"><ele>559.0</ele><time>2026-04-05T19:17:05Z</time></trkpt><trkpt lat="-27.415651149344626" lon="-52.300667619118755"><ele>558.3333333333334</ele><time>2026-04-05T19:17:06Z</time></trkpt><trkpt lat="-27.415559569721974" lon="-52.30072357512708"><ele>557.6666666666667</ele><time>2026-04-05T19:17:08Z</time></trkpt><trkpt lat="-27.4154880904249" lon="-52.300742071318595"><ele>557.0</ele><time>2026-04-05T19:17:09Z</time></trkpt><trkpt lat="-27.41541831593164" lon="-52.30076957682498"><ele>556.3333333333334</ele><time>2026-04-05T19:17:10Z</time></trkpt><trkpt lat="-27.41533843026124" lon="-52.300777445014276"><ele>555.6666666666666</ele><time>2026-04-05T19:17:11Z</time></trkpt><trkpt lat="-27.415267836544444" lon="-52.3007785768033"><ele>555.0</ele><time>2026-04-05T19:17:12Z</time></trkpt><trkpt lat="-27.415196896168297" lon="-52.300779081918705"><ele>554.4</ele><time>2026-04-05T19:17:13Z</time></trkpt><trkpt lat="-27.415117152891344" lon="-52.30076761977956"><ele>553.8</ele><time>2026-04-05T19:17:14Z</time></trkpt><trkpt lat="-27.41503837210765" lon="-52.300745058261406"><ele>553.2</ele><time>2026-04-05T19:17:15Z</time></trkpt><trkpt lat="-27.415046791638755" lon="-52.30087004559312"><ele>552.6</ele><time>2026-04-05T19:17:18Z</time></trkpt><trkpt lat="-27.41509804218109" lon="-52.30093827208909"><ele>552.0</ele><time>2026-04-05T19:17:19Z</time></trkpt><trkpt lat="-27.41517721581326" lon="-52.30102829161354"><ele>552.0</ele><time>2026-04-05T19:17:20Z</time></trkpt><trkpt lat="-27.415217324975792" lon="-52.30109092687564"><ele>552.0</ele><time>2026-04-05T19:17:21Z</time></trkpt><trkpt lat="-27.415238051081037" lon="-52.30116067186708"><ele>552.0</ele><time>2026-04-05T19:17:23Z</time></trkpt><trkpt lat="-27.415319637178843" lon="-52.30119743293018"><ele>552.0</ele><time>2026-04-05T19:17:26Z</time></trkpt><trkpt lat="-27.415392482019765" lon="-52.30116529178846"><ele>552.0</ele><time>2026-04-05T19:17:29Z</time></trkpt><trkpt lat="-27.415465593248925" lon="-52.30119435533838"><ele>552.0</ele><time>2026-04-05T19:17:32Z</time></trkpt><trkpt lat="-27.415545353046124" lon="-52.30125314759132"><ele>552.5</ele><time>2026-04-05T19:17:34Z</time></trkpt><trkpt lat="-27.415611059538154" lon="-52.30131691937366"><ele>553.0</ele><time>2026-04-05T19:17:36Z</time></trkpt><trkpt lat="-27.415647766995836" lon="-52.30138873242558"><ele>553.5</ele><time>2026-04-05T19:17:38Z</time></trkpt><trkpt lat="-27.4156831868926" lon="-52.301474675365796"><ele>554.0</ele><time>2026-04-05T19:17:40Z</time></trkpt><trkpt lat="-27.41570400515834" lon="-52.30154934768564"><ele>554.5</ele><time>2026-04-05T19:17:42Z</time></trkpt><trkpt lat="-27.415726861035484" lon="-52.30165826174116"><ele>555.0</ele><time>2026-04-05T19:17:45Z</time></trkpt><trkpt lat="-27.41568666493518" lon="-52.301778684607385"><ele>551.1666666666666</ele><time>2026-04-05T19:17:47Z</time></trkpt><trkpt lat="-27.41569671231285" lon="-52.30186330135531"><ele>547.3333333333334</ele><time>2026-04-05T19:17:49Z</time></trkpt><trkpt lat="-27.41576152848851" lon="-52.30192267868939"><ele>543.5</ele><time>2026-04-05T19:17:52Z</time></trkpt><trkpt lat="-27.415828140381812" lon="-52.3019728547909"><ele>539.6666666666667</ele><time>2026-04-05T19:17:55Z</time></trkpt><trkpt lat="-27.415926880916814" lon="-52.30197230009534"><ele>535.8333333333334</ele><time>2026-04-05T19:17:57Z</time></trkpt><trkpt lat="-27.415993209643265" lon="-52.30197821783226"><ele>532.0</ele><time>2026-04-05T19:18:00Z</time></trkpt><trkpt lat="-27.416078159721145" lon="-52.3019706495277"><ele>532.0</ele><time>2026-04-05T19:18:04.001Z</time></trkpt><trkpt lat="-27.41614159544892" lon="-52.3019765573468"><ele>532.0</ele><time>2026-04-05T19:18:06.001Z</time></trkpt><trkpt lat="-27.416214049643468" lon="-52.301931788304614"><ele>532.0</ele><time>2026-04-05T19:18:10.001Z</time></trkpt><trkpt lat="-27.41628470826599" lon="-52.30187724688546"><ele>532.0</ele><time>2026-04-05T19:18:12.001Z</time></trkpt><trkpt lat="-27.41632701520353" lon="-52.301820550028935"><ele>532.0</ele><time>2026-04-05T19:18:13.001Z</time></trkpt><trkpt lat="-27.416395834077697" lon="-52.3017691942651"><ele>532.0</ele><time>2026-04-05T19:18:15.001Z</time></trkpt><trkpt lat="-27.416484332161705" lon="-52.301700301366644"><ele>530.5</ele><time>2026-04-05T19:18:17.001Z</time></trkpt><trkpt lat="-27.41655003955108" lon="-52.301667901640684"><ele>529.0</ele><time>2026-04-05T19:18:18.001Z</time></trkpt><trkpt lat="-27.416654029457355" lon="-52.301652370619145"><ele>527.5</ele><time>2026-04-05T19:18:21.001Z</time></trkpt><trkpt lat="-27.416725993444135" lon="-52.30161072425746"><ele>526.0</ele><time>2026-04-05T19:18:23.001Z</time></trkpt><trkpt lat="-27.41678848122246" lon="-52.3015639802186"><ele>524.5</ele><time>2026-04-05T19:18:25.001Z</time></trkpt><trkpt lat="-27.41685874839275" lon="-52.301560645720905"><ele>523.0</ele><time>2026-04-05T19:18:27.001Z</time></trkpt><trkpt lat="-27.41692960278622" lon="-52.30157725818252"><ele>523.0</ele><time>2026-04-05T19:18:29.001Z</time></trkpt><trkpt lat="-27.417023364845058" lon="-52.30159115481111"><ele>523.0</ele><time>2026-04-05T19:18:31.001Z</time></trkpt><trkpt lat="-27.41708744758687" lon="-52.301595992121456"><ele>523.0</ele><time>2026-04-05T19:18:33.001Z</time></trkpt><trkpt lat="-27.417178851698026" lon="-52.30157344905903"><ele>523.0</ele><time>2026-04-05T19:18:35.001Z</time></trkpt><trkpt lat="-27.417246370215956" lon="-52.30155384512806"><ele>523.0</ele><time>2026-04-05T19:18:37.001Z</time></trkpt><trkpt lat="-27.417306059117266" lon="-52.301514042568236"><ele>523.0</ele><time>2026-04-05T19:18:39.001Z</time></trkpt><trkpt lat="-27.417362793172245" lon="-52.30147564522059"><ele>522.8333333333334</ele><time>2026-04-05T19:18:40.001Z</time></trkpt><trkpt lat="-27.417421649303968" lon="-52.30138490076618"><ele>522.6666666666667</ele><time>2026-04-05T19:18:43.001Z</time></trkpt><trkpt lat="-27.417509119502743" lon="-52.301401976581886"><ele>522.5</ele><time>2026-04-05T19:18:53.001Z</time></trkpt><trkpt lat="-27.417592770961033" lon="-52.3014390131012"><ele>522.3333333333334</ele><time>2026-04-05T19:18:57.001Z</time></trkpt><trkpt lat="-27.417659468233563" lon="-52.301466015381436"><ele>522.1666666666666</ele><time>2026-04-05T19:18:59.001Z</time></trkpt><trkpt lat="-27.417721907090808" lon="-52.30148627667299"><ele>522.0</ele><time>2026-04-05T19:19:01.001Z</time></trkpt><trkpt lat="-27.41780736212501" lon="-52.3015246316269"><ele>522.0</ele><time>2026-04-05T19:19:04.001Z</time></trkpt><trkpt lat="-27.41786479615407" lon="-52.30156560315485"><ele>522.0</ele><time>2026-04-05T19:19:10.001Z</time></trkpt><trkpt lat="-27.41792651817948" lon="-52.30159888692915"><ele>522.0</ele><time>2026-04-05T19:19:12.001Z</time></trkpt><trkpt lat="-27.41800342309793" lon="-52.30159383073264"><ele>522.0</ele><time>2026-04-05T19:19:15.001Z</time></trkpt><trkpt lat="-27.418059188478537" lon="-52.30163975912821"><ele>522.0</ele><time>2026-04-05T19:19:20.001Z</time></trkpt><trkpt lat="-27.418124761477248" lon="-52.30169253769861"><ele>522.0</ele><time>2026-04-05T19:21:41.001Z</time></trkpt><trkpt lat="-27.418094415396766" lon="-52.30177016256149"><ele>522.0</ele><time>2026-04-05T19:21:45.001Z</time></trkpt><trkpt lat="-27.418077561762395" lon="-52.30185005286158"><ele>522.0</ele><time>2026-04-05T19:21:48.001Z</time></trkpt><trkpt lat="-27.417983260489624" lon="-52.30183703284988"><ele>522.0</ele><time>2026-04-05T19:23:17.001Z</time></trkpt><trkpt lat="-27.417913350880994" lon="-52.30182325060012"><ele>522.0</ele><time>2026-04-05T19:23:20.001Z</time></trkpt><trkpt lat="-27.417845785565664" lon="-52.301803735030475"><ele>522.0</ele><time>2026-04-05T19:23:23.001Z</time></trkpt><trkpt lat="-27.41776479905162" lon="-52.30178686296185"><ele>522.0</ele><time>2026-04-05T19:23:26.001Z</time></trkpt><trkpt lat="-27.41770053995291" lon="-52.301749099418096"><ele>522.0</ele><time>2026-04-05T19:23:30.001Z</time></trkpt><trkpt lat="-27.417636726328322" lon="-52.301736949253154"><ele>522.0</ele><time>2026-04-05T19:23:35.001Z</time></trkpt><trkpt lat="-27.417560536496147" lon="-52.30174573130902"><ele>522.0</ele><time>2026-04-05T19:23:40.001Z</time></trkpt><trkpt lat="-27.41749457453553" lon="-52.30172247190397"><ele>522.0</ele><time>2026-04-05T19:24:00Z</time></trkpt><trkpt lat="-27.41738605152717" lon="-52.30170114028549"><ele>522.0</ele><time>2026-04-05T19:24:04Z</time></trkpt><trkpt lat="-27.417300866194743" lon="-52.30172181571253"><ele>522.0</ele><time>2026-04-05T19:24:06Z</time></trkpt><trkpt lat="-27.4172367330424" lon="-52.30176205885632"><ele>522.0</ele><time>2026-04-05T19:24:08Z</time></trkpt><trkpt lat="-27.417169493222147" lon="-52.301785101655376"><ele>522.2</ele><time>2026-04-05T19:24:10Z</time></trkpt><trkpt lat="-27.417056074589183" lon="-52.30185176744866"><ele>522.4000000000001</ele><time>2026-04-05T19:24:12Z</time></trkpt><trkpt lat="-27.417006610635607" lon="-52.301896838732496"><ele>522.5999999999999</ele><time>2026-04-05T19:24:13Z</time></trkpt><trkpt lat="-27.416911964614247" lon="-52.30195158639334"><ele>522.8</ele><time>2026-04-05T19:24:15Z</time></trkpt><trkpt lat="-27.416824985238303" lon="-52.30199370440824"><ele>523.0</ele><time>2026-04-05T19:24:18Z</time></trkpt><trkpt lat="-27.416764525734518" lon="-52.30201770248536"><ele>523.0</ele><time>2026-04-05T19:24:19.002Z</time></trkpt><trkpt lat="-27.416671467555414" lon="-52.30205591257854"><ele>523.0</ele><time>2026-04-05T19:24:21.002Z</time></trkpt><trkpt lat="-27.416609657869518" lon="-52.3020833998869"><ele>523.0</ele><time>2026-04-05T19:24:22.002Z</time></trkpt><trkpt lat="-27.416538352668788" lon="-52.30209682239508"><ele>523.0</ele><time>2026-04-05T19:24:23.002Z</time></trkpt><trkpt lat="-27.416421914280523" lon="-52.302128917171"><ele>523.0</ele><time>2026-04-05T19:24:25.002Z</time></trkpt><trkpt lat="-27.41632958110437" lon="-52.302158889568986"><ele>524.8</ele><time>2026-04-05T19:24:27.002Z</time></trkpt><trkpt lat="-27.4162168913963" lon="-52.30220277259473"><ele>526.5999999999999</ele><time>2026-04-05T19:24:29.002Z</time></trkpt><trkpt lat="-27.416137507707493" lon="-52.30224690889644"><ele>528.4000000000001</ele><time>2026-04-05T19:24:31.002Z</time></trkpt><trkpt lat="-27.416078163769587" lon="-52.30228172069089"><ele>530.2</ele><time>2026-04-05T19:24:32.002Z</time></trkpt><trkpt lat="-27.41599008481126" lon="-52.30231982509423"><ele>532.0</ele><time>2026-04-05T19:24:34.002Z</time></trkpt><trkpt lat="-27.415979888405413" lon="-52.30241198678547"><ele>528.3333333333334</ele><time>2026-04-05T19:24:38.002Z</time></trkpt><trkpt lat="-27.416012054390023" lon="-52.302509713810764"><ele>524.6666666666667</ele><time>2026-04-05T19:24:41.001Z</time></trkpt><trkpt lat="-27.416003620429507" lon="-52.30260873776934"><ele>521.0</ele><time>2026-04-05T19:24:44.001Z</time></trkpt><trkpt lat="-27.41596205769368" lon="-52.30269121812339"><ele>517.3333333333334</ele><time>2026-04-05T19:24:46.001Z</time></trkpt><trkpt lat="-27.415896641915843" lon="-52.302755890166026"><ele>513.6666666666666</ele><time>2026-04-05T19:24:49.001Z</time></trkpt><trkpt lat="-27.41582090358264" lon="-52.30279697652632"><ele>510.0</ele><time>2026-04-05T19:24:51.001Z</time></trkpt><trkpt lat="-27.415741526883405" lon="-52.30284453191487"><ele>510.0</ele><time>2026-04-05T19:24:53.001Z</time></trkpt><trkpt lat="-27.415661676014288" lon="-52.30284820916342"><ele>510.0</ele><time>2026-04-05T19:24:56.001Z</time></trkpt><trkpt lat="-27.415557811184954" lon="-52.302844983694484"><ele>510.0</ele><time>2026-04-05T19:24:58.001Z</time></trkpt><trkpt lat="-27.41545707946735" lon="-52.302856176804795"><ele>510.0</ele><time>2026-04-05T19:24:59.001Z</time></trkpt><trkpt lat="-27.41537732439209" lon="-52.30286336881251"><ele>510.0</ele><time>2026-04-05T19:25:00.001Z</time></trkpt><trkpt lat="-27.41529464608649" lon="-52.30286994687768"><ele>510.0</ele><time>2026-04-05T19:25:01.001Z</time></trkpt><trkpt lat="-27.415225642530714" lon="-52.302873698296786"><ele>511.0</ele><time>2026-04-05T19:25:02.001Z</time></trkpt><trkpt lat="-27.4151091909619" lon="-52.30288227137889"><ele>512.0</ele><time>2026-04-05T19:25:04.001Z</time></trkpt><trkpt lat="-27.41503337584273" lon="-52.30288595292397"><ele>513.0</ele><time>2026-04-05T19:25:05.001Z</time></trkpt><trkpt lat="-27.414964620585753" lon="-52.3028794787061"><ele>514.0</ele><time>2026-04-05T19:25:06.001Z</time></trkpt><trkpt lat="-27.414853398652994" lon="-52.30285338160158"><ele>515.0</ele><time>2026-04-05T19:25:08.001Z</time></trkpt><trkpt lat="-27.414789411300095" lon="-52.30283345950326"><ele>516.0</ele><time>2026-04-05T19:25:09.001Z</time></trkpt><trkpt lat="-27.414700137606527" lon="-52.30284616016255"><ele>516.4</ele><time>2026-04-05T19:25:11.001Z</time></trkpt><trkpt lat="-27.414579145684996" lon="-52.302881554675004"><ele>516.8</ele><time>2026-04-05T19:25:13.001Z</time></trkpt><trkpt lat="-27.414479701152516" lon="-52.30289839969286"><ele>517.1999999999999</ele><time>2026-04-05T19:25:15.001Z</time></trkpt><trkpt lat="-27.414410752177897" lon="-52.30289592453185"><ele>517.6</ele><time>2026-04-05T19:25:16.001Z</time></trkpt><trkpt lat="-27.414295045326487" lon="-52.302882572161415"><ele>518.0</ele><time>2026-04-05T19:25:18.001Z</time></trkpt><trkpt lat="-27.414192015018674" lon="-52.302881226215554"><ele>518.0</ele><time>2026-04-05T19:25:20.001Z</time></trkpt><trkpt lat="-27.41410825348339" lon="-52.302882362956076"><ele>518.0</ele><time>2026-04-05T19:25:22.001Z</time></trkpt><trkpt lat="-27.413999324097734" lon="-52.302858588491006"><ele>518.0</ele><time>2026-04-05T19:25:24Z</time></trkpt><trkpt lat="-27.413893198453806" lon="-52.30283822779739"><ele>518.0</ele><time>2026-04-05T19:25:26Z</time></trkpt><trkpt lat="-27.41379591062573" lon="-52.302821842187996"><ele>518.0</ele><time>2026-04-05T19:25:28Z</time></trkpt><trkpt lat="-27.413732840403974" lon="-52.30280758691992"><ele>517.1666666666666</ele><time>2026-04-05T19:25:30Z</time></trkpt><trkpt lat="-27.413652057792955" lon="-52.302755093276446"><ele>516.3333333333333</ele><time>2026-04-05T19:25:33Z</time></trkpt><trkpt lat="-27.41358196041987" lon="-52.302709548554986"><ele>515.5</ele><time>2026-04-05T19:25:35Z</time></trkpt><trkpt lat="-27.413527431384313" lon="-52.30264179630286"><ele>514.6666666666666</ele><time>2026-04-05T19:25:38Z</time></trkpt><trkpt lat="-27.413460928972846" lon="-52.3026480864841"><ele>513.8333333333334</ele><time>2026-04-05T19:26:37.001Z</time></trkpt><trkpt lat="-27.413396826241453" lon="-52.302765982111566"><ele>513.0</ele><time>2026-04-05T19:27:55Z</time></trkpt><trkpt lat="-27.413462718297858" lon="-52.30278340470472"><ele>513.0000000000001</ele><time>2026-04-05T19:28:36.001Z</time></trkpt><trkpt lat="-27.41353309594971" lon="-52.3028057539231"><ele>513.0</ele><time>2026-04-05T19:28:44.001Z</time></trkpt><trkpt lat="-27.413598340274717" lon="-52.30285303402744"><ele>513.0</ele><time>2026-04-05T19:28:51.001Z</time></trkpt><trkpt lat="-27.41362379672955" lon="-52.3029185658731"><ele>513.0</ele><time>2026-04-05T19:28:56.001Z</time></trkpt><trkpt lat="-27.413688494459493" lon="-52.30295249622128"><ele>513.0</ele><time>2026-04-05T19:29:03Z</time></trkpt><trkpt lat="-27.41372753327273" lon="-52.30301079055904"><ele>513.0000000000001</ele><time>2026-04-05T19:29:14Z</time></trkpt><trkpt lat="-27.413791286375456" lon="-52.303014905910274"><ele>513.0</ele><time>2026-04-05T19:29:25Z</time></trkpt><trkpt lat="-27.41383949575858" lon="-52.30310866748085"><ele>513.7142857142858</ele><time>2026-04-05T19:29:43Z</time></trkpt><trkpt lat="-27.413905559839712" lon="-52.30312330244718"><ele>514.4285714285714</ele><time>2026-04-05T19:30:54.001Z</time></trkpt><trkpt lat="-27.41397264157358" lon="-52.3031366024734"><ele>515.1428571428571</ele><time>2026-04-05T19:31:01Z</time></trkpt><trkpt lat="-27.4140461259541" lon="-52.30313282088187"><ele>515.8571428571429</ele><time>2026-04-05T19:31:12Z</time></trkpt><trkpt lat="-27.41411285249129" lon="-52.30311502533697"><ele>516.5714285714286</ele><time>2026-04-05T19:31:21Z</time></trkpt><trkpt lat="-27.414163801334276" lon="-52.30304250566316"><ele>517.2857142857143</ele><time>2026-04-05T19:31:47.999Z</time></trkpt><trkpt lat="-27.414140445252134" lon="-52.30296522387741"><ele>518.0</ele><time>2026-04-05T19:33:09Z</time></trkpt><trkpt lat="-27.414191732688163" lon="-52.302923489330205"><ele>518.0</ele><time>2026-04-05T19:33:22Z</time></trkpt><trkpt lat="-27.414129027206" lon="-52.30293716926398"><ele>518.0</ele><time>2026-04-05T19:36:18.999Z</time></trkpt><trkpt lat="-27.41415079203645" lon="-52.3030078107294"><ele>518.0</ele><time>2026-04-05T19:36:49.998Z</time></trkpt><trkpt lat="-27.41418804772616" lon="-52.30308250139908"><ele>518.0</ele><time>2026-04-05T19:37:26Z</time></trkpt><trkpt lat="-27.414117051712207" lon="-52.303090979538844"><ele>518.0</ele><time>2026-04-05T19:40:41.998Z</time></trkpt><trkpt lat="-27.414049237450318" lon="-52.30311390629429"><ele>518.0</ele><time>2026-04-05T19:44:19.999Z</time></trkpt><trkpt lat="-27.41398164577218" lon="-52.30313010567515"><ele>518.0</ele><time>2026-04-05T19:45:20Z</time></trkpt><trkpt lat="-27.413912242603992" lon="-52.30312152888127"><ele>518.0</ele><time>2026-04-05T19:45:32Z</time></trkpt><trkpt lat="-27.413853888649182" lon="-52.30305183719653"><ele>518.0</ele><time>2026-04-05T19:46:10.999Z</time></trkpt><trkpt lat="-27.413794355995503" lon="-52.30301429373834"><ele>518.0</ele><time>2026-04-05T19:46:46.999Z</time></trkpt><trkpt lat="-27.41372261166829" lon="-52.302999912291504"><ele>518.0</ele><time>2026-04-05T19:46:54.998Z</time></trkpt><trkpt lat="-27.413674424128658" lon="-52.302950198883806"><ele>518.0</ele><time>2026-04-05T19:47:04.998Z</time></trkpt><trkpt lat="-27.413614937512623" lon="-52.302906214666436"><ele>518.0</ele><time>2026-04-05T19:47:26Z</time></trkpt><trkpt lat="-27.41357122433954" lon="-52.302843540517785"><ele>518.0</ele><time>2026-04-05T19:47:36Z</time></trkpt><trkpt lat="-27.41352783980738" lon="-52.302790551991585"><ele>517.1666666666666</ele><time>2026-04-05T19:47:42Z</time></trkpt><trkpt lat="-27.413425412930827" lon="-52.30276119550389"><ele>516.3333333333333</ele><time>2026-04-05T19:48:02Z</time></trkpt><trkpt lat="-27.41334295718343" lon="-52.30272023575589"><ele>515.5</ele><time>2026-04-05T19:48:16.999Z</time></trkpt><trkpt lat="-27.413279483616122" lon="-52.302695284645104"><ele>514.6666666666666</ele><time>2026-04-05T19:48:24.999Z</time></trkpt><trkpt lat="-27.413220060434924" lon="-52.30265831537472"><ele>513.8333333333334</ele><time>2026-04-05T19:48:37.999Z</time></trkpt><trkpt lat="-27.413258080036147" lon="-52.30271604897493"><ele>513.0</ele><time>2026-04-05T19:50:29.999Z</time></trkpt><trkpt lat="-27.41331789387855" lon="-52.30275390798486"><ele>513.0</ele><time>2026-04-05T19:50:48.999Z</time></trkpt><trkpt lat="-27.41338128245933" lon="-52.30278610831054"><ele>513.0</ele><time>2026-04-05T19:50:54.999Z</time></trkpt><trkpt lat="-27.41344474695629" lon="-52.30276895848119"><ele>513.0</ele><time>2026-04-05T19:51:11.998Z</time></trkpt><trkpt lat="-27.41337599897971" lon="-52.302749486290594"><ele>513.0</ele><time>2026-04-05T19:51:41Z</time></trkpt><trkpt lat="-27.41331779376536" lon="-52.30270005424056"><ele>513.0</ele><time>2026-04-05T19:51:45Z</time></trkpt><trkpt lat="-27.413250411659785" lon="-52.30267666265111"><ele>513.0</ele><time>2026-04-05T19:51:54Z</time></trkpt><trkpt lat="-27.413196890591067" lon="-52.30279876179672"><ele>513.0</ele><time>2026-04-05T19:52:41.999Z</time></trkpt><trkpt lat="-27.41321614480781" lon="-52.30291458827248"><ele>513.0</ele><time>2026-04-05T19:56:14Z</time></trkpt><trkpt lat="-27.41322322096614" lon="-52.3030463507438"><ele>513.0</ele><time>2026-04-05T19:56:58.999Z</time></trkpt><trkpt lat="-27.41315562537886" lon="-52.303011701599885"><ele>513.0</ele><time>2026-04-05T19:59:59Z</time></trkpt><trkpt lat="-27.41321810920077" lon="-52.30299716371485"><ele>513.0</ele><time>2026-04-05T20:07:08.999Z</time></trkpt><trkpt lat="-27.413243636478718" lon="-52.30292695533852"><ele>513.0</ele><time>2026-04-05T20:07:19.999Z</time></trkpt><trkpt lat="-27.41322259912735" lon="-52.30285193865873"><ele>513.0000000000001</ele><time>2026-04-05T20:07:30.999Z</time></trkpt><trkpt lat="-27.413228354031126" lon="-52.3027757096178"><ele>513.0</ele><time>2026-04-05T20:07:35.999Z</time></trkpt><trkpt lat="-27.413227075413108" lon="-52.30269971170548"><ele>513.0</ele><time>2026-04-05T20:08:05.998Z</time></trkpt><trkpt lat="-27.41329703285626" lon="-52.30268746639633"><ele>513.0</ele><time>2026-04-05T20:08:23Z</time></trkpt><trkpt lat="-27.413346069878052" lon="-52.30274280644525"><ele>513.0</ele><time>2026-04-05T20:08:33Z</time></trkpt><trkpt lat="-27.413310296410234" lon="-52.302676162439454"><ele>513.0000000000001</ele><time>2026-04-05T20:09:05.999Z</time></trkpt><trkpt lat="-27.41324812782021" lon="-52.30264803044605"><ele>513.0</ele><time>2026-04-05T20:09:22.999Z</time></trkpt><trkpt lat="-27.413206638319046" lon="-52.302704868640774"><ele>513.0000000000001</ele><time>2026-04-05T20:11:58.998Z</time></trkpt><trkpt lat="-27.413210539914537" lon="-52.302776802193094"><ele>513.0</ele><time>2026-04-05T20:15:08Z</time></trkpt><trkpt lat="-27.41317762920421" lon="-52.30271135704851"><ele>513.0</ele><time>2026-04-05T20:16:55Z</time></trkpt><trkpt lat="-27.413224528273517" lon="-52.3027653966974"><ele>513.0</ele><time>2026-04-05T20:17:52.999Z</time></trkpt><trkpt lat="-27.41320144177463" lon="-52.30268656766068"><ele>513.0</ele><time>2026-04-05T20:18:08.999Z</time></trkpt><trkpt lat="-27.413271503387882" lon="-52.30268927919561"><ele>513.0000000000001</ele><time>2026-04-05T20:18:23.998Z</time></trkpt><trkpt lat="-27.413359103054688" lon="-52.30270353502353"><ele>513.0</ele><time>2026-04-05T20:19:53.999Z</time></trkpt><trkpt lat="-27.41342296695096" lon="-52.3027410367772"><ele>513.0</ele><time>2026-04-05T20:20:14.999Z</time></trkpt><trkpt lat="-27.413469294468175" lon="-52.30268315560075"><ele>513.0</ele><time>2026-04-05T20:20:17.999Z</time></trkpt><trkpt lat="-27.413511010841965" lon="-52.30262844653079"><ele>513.0</ele><time>2026-04-05T20:20:24.998Z</time></trkpt><trkpt lat="-27.413475783828396" lon="-52.302567785149336"><ele>513.0</ele><time>2026-04-05T20:20:42.998Z</time></trkpt><trkpt lat="-27.413391688093547" lon="-52.302488237242805"><ele>513.0</ele><time>2026-04-05T20:20:44.998Z</time></trkpt><trkpt lat="-27.413308940039116" lon="-52.30242329764107"><ele>513.0</ele><time>2026-04-05T20:20:46.998Z</time></trkpt><trkpt lat="-27.413239796437395" lon="-52.30237049634936"><ele>513.0000000000001</ele><time>2026-04-05T20:20:48.998Z</time></trkpt><trkpt lat="-27.413175065656894" lon="-52.3023173692377"><ele>513.0</ele><time>2026-04-05T20:20:50.998Z</time></trkpt><trkpt lat="-27.413143769525572" lon="-52.3022449661418"><ele>513.0</ele><time>2026-04-05T20:20:52.998Z</time></trkpt><trkpt lat="-27.41314839924729" lon="-52.3021661546851"><ele>513.0</ele><time>2026-04-05T20:21:00Z</time></trkpt><trkpt lat="-27.41308504808232" lon="-52.30216796429388"><ele>513.0</ele><time>2026-04-05T20:21:02Z</time></trkpt><trkpt lat="-27.41301849509047" lon="-52.30217957860154"><ele>513.0000000000001</ele><time>2026-04-05T20:21:03Z</time></trkpt><trkpt lat="-27.412942078745594" lon="-52.302205902517635"><ele>513.0</ele><time>2026-04-05T20:21:04Z</time></trkpt><trkpt lat="-27.412879300189648" lon="-52.30223025966588"><ele>511.1666666666667</ele><time>2026-04-05T20:21:05Z</time></trkpt><trkpt lat="-27.412778192146195" lon="-52.30225999005509"><ele>509.33333333333337</ele><time>2026-04-05T20:21:07Z</time></trkpt><trkpt lat="-27.412719877768353" lon="-52.30229318797738"><ele>507.5</ele><time>2026-04-05T20:21:08Z</time></trkpt><trkpt lat="-27.4126525266397" lon="-52.30231026895796"><ele>505.6666666666667</ele><time>2026-04-05T20:21:09Z</time></trkpt><trkpt lat="-27.412575882553035" lon="-52.302309569769584"><ele>503.83333333333337</ele><time>2026-04-05T20:21:10Z</time></trkpt><trkpt lat="-27.412496517259942" lon="-52.302303804581854"><ele>502.0</ele><time>2026-04-05T20:21:11Z</time></trkpt><trkpt lat="-27.412414601954904" lon="-52.30230187765091"><ele>502.0</ele><time>2026-04-05T20:21:12Z</time></trkpt><trkpt lat="-27.412335440939124" lon="-52.302295889115"><ele>502.00000000000006</ele><time>2026-04-05T20:21:13Z</time></trkpt><trkpt lat="-27.41225668911651" lon="-52.302292099445715"><ele>502.00000000000006</ele><time>2026-04-05T20:21:14Z</time></trkpt><trkpt lat="-27.412131696544748" lon="-52.30226991894806"><ele>502.0</ele><time>2026-04-05T20:21:16Z</time></trkpt><trkpt lat="-27.412022373693613" lon="-52.30223834245213"><ele>502.0</ele><time>2026-04-05T20:21:18Z</time></trkpt><trkpt lat="-27.411883405503122" lon="-52.30220215829438"><ele>502.6666666666667</ele><time>2026-04-05T20:21:20Z</time></trkpt><trkpt lat="-27.411793507803466" lon="-52.3021657930382"><ele>503.33333333333337</ele><time>2026-04-05T20:21:21Z</time></trkpt><trkpt lat="-27.411731760775737" lon="-52.30212305842319"><ele>504.0</ele><time>2026-04-05T20:21:22Z</time></trkpt><trkpt lat="-27.411669441477898" lon="-52.302109536927915"><ele>504.66666666666663</ele><time>2026-04-05T20:21:23Z</time></trkpt><trkpt lat="-27.41164463425231" lon="-52.30218661994942"><ele>505.3333333333333</ele><time>2026-04-05T20:21:25Z</time></trkpt><trkpt lat="-27.411605205275574" lon="-52.3022768688958"><ele>506.0</ele><time>2026-04-05T20:21:27Z</time></trkpt><trkpt lat="-27.411494403955444" lon="-52.30233912249196"><ele>503.20000000000005</ele><time>2026-04-05T20:21:29Z</time></trkpt><trkpt lat="-27.411397669794646" lon="-52.30238874896244"><ele>500.40000000000003</ele><time>2026-04-05T20:21:30Z</time></trkpt><trkpt lat="-27.411308486936576" lon="-52.30243202410161"><ele>497.6</ele><time>2026-04-05T20:21:31Z</time></trkpt><trkpt lat="-27.411203405779574" lon="-52.30246298934136"><ele>494.8</ele><time>2026-04-05T20:21:32Z</time></trkpt><trkpt lat="-27.4110941429479" lon="-52.30247272512568"><ele>492.0</ele><time>2026-04-05T20:21:33Z</time></trkpt><trkpt lat="-27.410986371689244" lon="-52.30244966316013"><ele>492.20000000000005</ele><time>2026-04-05T20:21:34Z</time></trkpt><trkpt lat="-27.410890387952836" lon="-52.302395774638406"><ele>492.40000000000003</ele><time>2026-04-05T20:21:35Z</time></trkpt><trkpt lat="-27.410777449361234" lon="-52.30235427477045"><ele>492.59999999999997</ele><time>2026-04-05T20:21:36Z</time></trkpt><trkpt lat="-27.410680722893016" lon="-52.302294494730106"><ele>492.79999999999995</ele><time>2026-04-05T20:21:37Z</time></trkpt><trkpt lat="-27.41058171936918" lon="-52.302232973086625"><ele>493.0</ele><time>2026-04-05T20:21:38Z</time></trkpt><trkpt lat="-27.410480148265414" lon="-52.302169745230216"><ele>490.6666666666667</ele><time>2026-04-05T20:21:38.999Z</time></trkpt><trkpt lat="-27.410394730424862" lon="-52.30211657274057"><ele>488.33333333333337</ele><time>2026-04-05T20:21:39.999Z</time></trkpt><trkpt lat="-27.410316729761455" lon="-52.302068017333916"><ele>486.0</ele><time>2026-04-05T20:21:40.999Z</time></trkpt><trkpt lat="-27.410253932717055" lon="-52.30204805495966"><ele>483.66666666666663</ele><time>2026-04-05T20:21:41.999Z</time></trkpt><trkpt lat="-27.41018001363144" lon="-52.30201166209249"><ele>481.3333333333333</ele><time>2026-04-05T20:21:42.999Z</time></trkpt><trkpt lat="-27.410112473527363" lon="-52.302022814638555"><ele>479.0</ele><time>2026-04-05T20:21:43.999Z</time></trkpt><trkpt lat="-27.41002718227673" lon="-52.3020801466229"><ele>479.0</ele><time>2026-04-05T20:21:45.999Z</time></trkpt><trkpt lat="-27.409951295239566" lon="-52.302189074066376"><ele>479.0</ele><time>2026-04-05T20:21:47.999Z</time></trkpt><trkpt lat="-27.40995234390534" lon="-52.30232281272576"><ele>479.0</ele><time>2026-04-05T20:21:49.999Z</time></trkpt><trkpt lat="-27.40997103971267" lon="-52.30242380158744"><ele>479.0</ele><time>2026-04-05T20:21:51.999Z</time></trkpt><trkpt lat="-27.409985285600722" lon="-52.30250253453487"><ele>479.0</ele><time>2026-04-05T20:21:53.999Z</time></trkpt><trkpt lat="-27.409998100210093" lon="-52.30257305954397"><ele>477.0</ele><time>2026-04-05T20:21:55.999Z</time></trkpt><trkpt lat="-27.410016095393363" lon="-52.30267112465817"><ele>475.0</ele><time>2026-04-05T20:21:57.999Z</time></trkpt><trkpt lat="-27.410038660793596" lon="-52.302794392769464"><ele>473.0</ele><time>2026-04-05T20:21:58.999Z</time></trkpt><trkpt lat="-27.41005776195079" lon="-52.302900501008565"><ele>471.0</ele><time>2026-04-05T20:21:59.999Z</time></trkpt><trkpt lat="-27.410074715979267" lon="-52.302989940315804"><ele>469.0</ele><time>2026-04-05T20:22:00.999Z</time></trkpt><trkpt lat="-27.410098049163494" lon="-52.30307872045377"><ele>468.6666666666667</ele><time>2026-04-05T20:22:01.999Z</time></trkpt><trkpt lat="-27.410118971823614" lon="-52.303166021788435"><ele>468.33333333333337</ele><time>2026-04-05T20:22:02.999Z</time></trkpt><trkpt lat="-27.410137575108543" lon="-52.30324277721147"><ele>468.0</ele><time>2026-04-05T20:22:03.999Z</time></trkpt><trkpt lat="-27.41017219887364" lon="-52.30331472956505"><ele>467.66666666666663</ele><time>2026-04-05T20:22:04.999Z</time></trkpt><trkpt lat="-27.410204994821488" lon="-52.30339998293418"><ele>467.3333333333333</ele><time>2026-04-05T20:22:07.999Z</time></trkpt><trkpt lat="-27.41027985524911" lon="-52.303426825577375"><ele>467.0</ele><time>2026-04-05T20:22:41.998Z</time></trkpt><trkpt lat="-27.410269801929203" lon="-52.3033210322234"><ele>466.99999999999994</ele><time>2026-04-05T20:22:45.998Z</time></trkpt><trkpt lat="-27.410231800050624" lon="-52.30326286074285"><ele>467.0</ele><time>2026-04-05T20:22:47.998Z</time></trkpt><trkpt lat="-27.41026211134362" lon="-52.303354734188154"><ele>467.0</ele><time>2026-04-05T20:24:44.998Z</time></trkpt><trkpt lat="-27.410226385312324" lon="-52.30323537142228"><ele>467.0</ele><time>2026-04-05T20:24:50.998Z</time></trkpt><trkpt lat="-27.410201563471695" lon="-52.30316229546748"><ele>466.99999999999994</ele><time>2026-04-05T20:24:51.998Z</time></trkpt><trkpt lat="-27.410153993612795" lon="-52.30309590389922"><ele>467.0</ele><time>2026-04-05T20:24:52.998Z</time></trkpt><trkpt lat="-27.410132419678416" lon="-52.303005526647915"><ele>467.40000000000003</ele><time>2026-04-05T20:24:53.998Z</time></trkpt><trkpt lat="-27.41011523587532" lon="-52.30293371838879"><ele>467.80000000000007</ele><time>2026-04-05T20:24:54.998Z</time></trkpt><trkpt lat="-27.41009729313654" lon="-52.30283628760277"><ele>468.2</ele><time>2026-04-05T20:24:55.998Z</time></trkpt><trkpt lat="-27.41007271521557" lon="-52.302701043454896"><ele>468.6</ele><time>2026-04-05T20:24:56.998Z</time></trkpt><trkpt lat="-27.41005267107244" lon="-52.30259181253821"><ele>469.0</ele><time>2026-04-05T20:24:57.998Z</time></trkpt><trkpt lat="-27.410177065718155" lon="-52.302543893070876"><ele>469.0</ele><time>2026-04-05T20:25:18Z</time></trkpt><trkpt lat="-27.410257053359036" lon="-52.30252120426037"><ele>469.0</ele><time>2026-04-05T20:25:56.999Z</time></trkpt><trkpt lat="-27.41020269875492" lon="-52.30256809729246"><ele>469.0</ele><time>2026-04-05T20:27:32Z</time></trkpt><trkpt lat="-27.41002490380273" lon="-52.3028901758925"><ele>469.0</ele><time>2026-04-05T20:28:06.999Z</time></trkpt><trkpt lat="-27.410163197993818" lon="-52.30254687727221"><ele>469.0</ele><time>2026-04-05T20:28:07.999Z</time></trkpt><trkpt lat="-27.410097427488388" lon="-52.302575378617504"><ele>469.0</ele><time>2026-04-05T20:29:19Z</time></trkpt><trkpt lat="-27.41010161734505" lon="-52.302659053444216"><ele>469.0</ele><time>2026-04-05T20:29:26Z</time></trkpt><trkpt lat="-27.410119436683328" lon="-52.30273228810028"><ele>469.0</ele><time>2026-04-05T20:29:29Z</time></trkpt><trkpt lat="-27.41014191086468" lon="-52.30281319674976"><ele>469.0</ele><time>2026-04-05T20:29:34Z</time></trkpt><trkpt lat="-27.41015886733892" lon="-52.30289660140456"><ele>469.0</ele><time>2026-04-05T20:29:38Z</time></trkpt><trkpt lat="-27.410148379220765" lon="-52.30313107324497"><ele>469.0</ele><time>2026-04-05T20:29:41Z</time></trkpt><trkpt lat="-27.410171380910125" lon="-52.30322324677198"><ele>468.6666666666667</ele><time>2026-04-05T20:29:42Z</time></trkpt><trkpt lat="-27.410174419259352" lon="-52.303320501441675"><ele>468.33333333333337</ele><time>2026-04-05T20:29:43Z</time></trkpt><trkpt lat="-27.410204153834943" lon="-52.30339779675783"><ele>468.0</ele><time>2026-04-05T20:29:44Z</time></trkpt><trkpt lat="-27.410198519277508" lon="-52.30350831229735"><ele>467.66666666666663</ele><time>2026-04-05T20:29:46Z</time></trkpt><trkpt lat="-27.410196865393413" lon="-52.30360407219628"><ele>467.3333333333333</ele><time>2026-04-05T20:29:48Z</time></trkpt><trkpt lat="-27.410195614206046" lon="-52.30367651586665"><ele>467.0</ele><time>2026-04-05T20:29:52Z</time></trkpt><trkpt lat="-27.410369624335054" lon="-52.30376465316492"><ele>467.0</ele><time>2026-04-05T20:29:54Z</time></trkpt><trkpt lat="-27.41046601224052" lon="-52.30374625146343"><ele>467.00000000000006</ele><time>2026-04-05T20:29:55Z</time></trkpt><trkpt lat="-27.410552051237257" lon="-52.3037298254658"><ele>467.00000000000006</ele><time>2026-04-05T20:29:56Z</time></trkpt><trkpt lat="-27.4106407555287" lon="-52.303712706263155"><ele>467.0</ele><time>2026-04-05T20:29:57Z</time></trkpt><trkpt lat="-27.41074712034981" lon="-52.30369206984193"><ele>467.0</ele><time>2026-04-05T20:29:58Z</time></trkpt><trkpt lat="-27.410852057696626" lon="-52.303671512318246"><ele>467.75</ele><time>2026-04-05T20:29:59Z</time></trkpt><trkpt lat="-27.410959408626823" lon="-52.30365145823567"><ele>468.5</ele><time>2026-04-05T20:30:00Z</time></trkpt><trkpt lat="-27.411069220365142" lon="-52.303630857685704"><ele>469.25</ele><time>2026-04-05T20:30:00.999Z</time></trkpt><trkpt lat="-27.411203783832892" lon="-52.3036050971449"><ele>470.0</ele><time>2026-04-05T20:30:01.999Z</time></trkpt><trkpt lat="-27.411335826289964" lon="-52.30357981921834"><ele>471.0</ele><time>2026-04-05T20:30:02.999Z</time></trkpt><trkpt lat="-27.411470938548497" lon="-52.30355377955983"><ele>472.0</ele><time>2026-04-05T20:30:03.999Z</time></trkpt><trkpt lat="-27.411614758977898" lon="-52.30352595286486"><ele>473.0</ele><time>2026-04-05T20:30:04.999Z</time></trkpt><trkpt lat="-27.411764067777934" lon="-52.303497422774164"><ele>474.0</ele><time>2026-04-05T20:30:05.999Z</time></trkpt><trkpt lat="-27.41191994416574" lon="-52.30346745830547"><ele>474.0</ele><time>2026-04-05T20:30:06.999Z</time></trkpt><trkpt lat="-27.4120695381726" lon="-52.30343847745305"><ele>474.0</ele><time>2026-04-05T20:30:07.999Z</time></trkpt><trkpt lat="-27.41221924146158" lon="-52.30340970620073"><ele>474.0</ele><time>2026-04-05T20:30:08.999Z</time></trkpt><trkpt lat="-27.412375977066713" lon="-52.303379839386864"><ele>474.33333333333337</ele><time>2026-04-05T20:30:09.999Z</time></trkpt><trkpt lat="-27.41253951168534" lon="-52.303365105794576"><ele>474.6666666666667</ele><time>2026-04-05T20:30:10.999Z</time></trkpt><trkpt lat="-27.41269910936805" lon="-52.30336510579391"><ele>475.0</ele><time>2026-04-05T20:30:11.999Z</time></trkpt><trkpt lat="-27.412865457136522" lon="-52.3033651057935"><ele>478.6666666666667</ele><time>2026-04-05T20:30:12.999Z</time></trkpt><trkpt lat="-27.41301911234684" lon="-52.303392798743836"><ele>482.33333333333337</ele><time>2026-04-05T20:30:13.999Z</time></trkpt><trkpt lat="-27.413188744275" lon="-52.30342645121644"><ele>486.0</ele><time>2026-04-05T20:30:14.999Z</time></trkpt><trkpt lat="-27.41333818239401" lon="-52.30349332880543"><ele>486.0</ele><time>2026-04-05T20:30:15.999Z</time></trkpt><trkpt lat="-27.413487157905912" lon="-52.30355207848217"><ele>486.0</ele><time>2026-04-05T20:30:16.999Z</time></trkpt><trkpt lat="-27.413621021252514" lon="-52.30362792267793"><ele>486.0</ele><time>2026-04-05T20:30:17.999Z</time></trkpt><trkpt lat="-27.413751495532455" lon="-52.303703632372745"><ele>488.25</ele><time>2026-04-05T20:30:18.999Z</time></trkpt><trkpt lat="-27.41388866877005" lon="-52.303781815331256"><ele>490.5</ele><time>2026-04-05T20:30:19.999Z</time></trkpt><trkpt lat="-27.4140210075086" lon="-52.30385841484959"><ele>492.75</ele><time>2026-04-05T20:30:20.999Z</time></trkpt><trkpt lat="-27.41414661625265" lon="-52.30393000271925"><ele>495.0</ele><time>2026-04-05T20:30:21.999Z</time></trkpt><trkpt lat="-27.414279267019662" lon="-52.304006054480865"><ele>487.33333333333337</ele><time>2026-04-05T20:30:22.999Z</time></trkpt><trkpt lat="-27.414417441384746" lon="-52.304085253632906"><ele>479.6666666666667</ele><time>2026-04-05T20:30:23.999Z</time></trkpt><trkpt lat="-27.414550485541938" lon="-52.304161400281366"><ele>472.0</ele><time>2026-04-05T20:30:24.999Z</time></trkpt><trkpt lat="-27.41468237922464" lon="-52.30423688274092"><ele>471.6666666666667</ele><time>2026-04-05T20:30:25.999Z</time></trkpt><trkpt lat="-27.4148227172544" lon="-52.30431663769298"><ele>471.33333333333337</ele><time>2026-04-05T20:30:26.999Z</time></trkpt><trkpt lat="-27.414978821882578" lon="-52.30440664974275"><ele>471.0</ele><time>2026-04-05T20:30:27.999Z</time></trkpt><trkpt lat="-27.415117248805643" lon="-52.30448539584372"><ele>471.0</ele><time>2026-04-05T20:30:28.999Z</time></trkpt><trkpt lat="-27.415267155542058" lon="-52.30457198910087"><ele>471.0</ele><time>2026-04-05T20:30:29.999Z</time></trkpt><trkpt lat="-27.415452554379936" lon="-52.30467908424915"><ele>471.0</ele><time>2026-04-05T20:30:30.999Z</time></trkpt><trkpt lat="-27.415668434156984" lon="-52.30480378665225"><ele>469.0</ele><time>2026-04-05T20:30:31.999Z</time></trkpt><trkpt lat="-27.415869813488136" lon="-52.304919753578574"><ele>467.0</ele><time>2026-04-05T20:30:32.999Z</time></trkpt><trkpt lat="-27.416024416552954" lon="-52.30500886456588"><ele>465.0</ele><time>2026-04-05T20:30:33.999Z</time></trkpt><trkpt lat="-27.416139682676263" lon="-52.30507609850327"><ele>465.0</ele><time>2026-04-05T20:30:34.999Z</time></trkpt><trkpt lat="-27.41622156676728" lon="-52.305123296431084"><ele>465.0</ele><time>2026-04-05T20:30:35.999Z</time></trkpt><trkpt lat="-27.416285268567105" lon="-52.305158851240336"><ele>465.0</ele><time>2026-04-05T20:30:37.999Z</time></trkpt><trkpt lat="-27.416190529674683" lon="-52.305228641623856"><ele>465.0</ele><time>2026-04-05T20:30:39.999Z</time></trkpt><trkpt lat="-27.416175161978092" lon="-52.30531970248373"><ele>465.0</ele><time>2026-04-05T20:30:40.999Z</time></trkpt><trkpt lat="-27.41615864375728" lon="-52.305417580772705"><ele>465.0</ele><time>2026-04-05T20:30:41.999Z</time></trkpt><trkpt lat="-27.416144719496266" lon="-52.30550008862299"><ele>464.3333333333333</ele><time>2026-04-05T20:30:42.999Z</time></trkpt><trkpt lat="-27.4161309669631" lon="-52.30558128634759"><ele>463.66666666666663</ele><time>2026-04-05T20:30:43.999Z</time></trkpt><trkpt lat="-27.41611351383017" lon="-52.30568397837952"><ele>463.0</ele><time>2026-04-05T20:30:44.999Z</time></trkpt><trkpt lat="-27.416095673900198" lon="-52.30578894620003"><ele>462.3333333333333</ele><time>2026-04-05T20:30:45.999Z</time></trkpt><trkpt lat="-27.416080543476887" lon="-52.30587797161548"><ele>461.66666666666663</ele><time>2026-04-05T20:30:46.998Z</time></trkpt><trkpt lat="-27.41606536636642" lon="-52.30596581797472"><ele>461.0</ele><time>2026-04-05T20:30:48.998Z</time></trkpt><trkpt lat="-27.415940162502658" lon="-52.305990063625636"><ele>461.0</ele><time>2026-04-05T20:30:51.998Z</time></trkpt><trkpt lat="-27.41582199791548" lon="-52.305984229743096"><ele>461.0</ele><time>2026-04-05T20:30:52.998Z</time></trkpt><trkpt lat="-27.41571728782639" lon="-52.305982657013914"><ele>461.0</ele><time>2026-04-05T20:30:53.998Z</time></trkpt><trkpt lat="-27.415611756259022" lon="-52.30597723071177"><ele>461.0</ele><time>2026-04-05T20:30:54.998Z</time></trkpt><trkpt lat="-27.41552840102913" lon="-52.30597602179803"><ele>461.0</ele><time>2026-04-05T20:30:55.998Z</time></trkpt><trkpt lat="-27.41545077108927" lon="-52.30597537642322"><ele>461.0</ele><time>2026-04-05T20:30:56.998Z</time></trkpt><trkpt lat="-27.41534086997008" lon="-52.30594821414009"><ele>461.0</ele><time>2026-04-05T20:30:58.998Z</time></trkpt><trkpt lat="-27.415285499726718" lon="-52.305911445654125"><ele>461.0</ele><time>2026-04-05T20:30:59.998Z</time></trkpt><trkpt lat="-27.415185367529" lon="-52.305854227480594"><ele>461.0</ele><time>2026-04-05T20:31:01.998Z</time></trkpt><trkpt lat="-27.415092107645577" lon="-52.30583503440285"><ele>461.0</ele><time>2026-04-05T20:31:03.998Z</time></trkpt><trkpt lat="-27.41502981877321" lon="-52.30589139200666"><ele>461.0</ele><time>2026-04-05T20:31:05.998Z</time></trkpt><trkpt lat="-27.414985632795986" lon="-52.305961321569555"><ele>461.0</ele><time>2026-04-05T20:31:07.998Z</time></trkpt><trkpt lat="-27.414917473830712" lon="-52.305955058266626"><ele>461.0</ele><time>2026-04-05T20:31:12.998Z</time></trkpt><trkpt lat="-27.4148523054103" lon="-52.3059836561575"><ele>461.0</ele><time>2026-04-05T20:31:14.998Z</time></trkpt><trkpt lat="-27.414706446792152" lon="-52.30596813009813"><ele>461.0</ele><time>2026-04-05T20:31:16.998Z</time></trkpt><trkpt lat="-27.414617491899968" lon="-52.30601287963671"><ele>459.66666666666663</ele><time>2026-04-05T20:31:18.998Z</time></trkpt><trkpt lat="-27.414528581417546" lon="-52.30605675210966"><ele>458.3333333333333</ele><time>2026-04-05T20:31:20.998Z</time></trkpt><trkpt lat="-27.414426885592242" lon="-52.30608556367389"><ele>457.0</ele><time>2026-04-05T20:31:22.998Z</time></trkpt><trkpt lat="-27.41434134967027" lon="-52.30608387390809"><ele>455.66666666666663</ele><time>2026-04-05T20:31:25Z</time></trkpt><trkpt lat="-27.41427329648621" lon="-52.30609721281117"><ele>454.3333333333333</ele><time>2026-04-05T20:31:27Z</time></trkpt><trkpt lat="-27.414262857130446" lon="-52.30619116692447"><ele>453.0</ele><time>2026-04-05T20:31:30Z</time></trkpt><trkpt lat="-27.414235337293476" lon="-52.3062920287017"><ele>453.0</ele><time>2026-04-05T20:31:34Z</time></trkpt><trkpt lat="-27.414215709612296" lon="-52.306423750709264"><ele>452.99999999999994</ele><time>2026-04-05T20:31:36Z</time></trkpt><trkpt lat="-27.414193816528456" lon="-52.30655886871788"><ele>452.99999999999994</ele><time>2026-04-05T20:31:38Z</time></trkpt><trkpt lat="-27.414183346616603" lon="-52.30670030366358"><ele>453.0</ele><time>2026-04-05T20:31:40Z</time></trkpt><trkpt lat="-27.414148104511746" lon="-52.3067789644692"><ele>453.0</ele><time>2026-04-05T20:31:44Z</time></trkpt><trkpt lat="-27.414100270963633" lon="-52.306848182246554"><ele>453.0</ele><time>2026-04-05T20:31:46Z</time></trkpt><trkpt lat="-27.41404405859073" lon="-52.30693637871315"><ele>452.99999999999994</ele><time>2026-04-05T20:31:48Z</time></trkpt><trkpt lat="-27.4139807192166" lon="-52.30699322736759"><ele>452.99999999999994</ele><time>2026-04-05T20:31:51Z</time></trkpt><trkpt lat="-27.413967245891307" lon="-52.307062629389186"><ele>453.0</ele><time>2026-04-05T20:31:53Z</time></trkpt><trkpt lat="-27.413998244565" lon="-52.307133487014625"><ele>453.0</ele><time>2026-04-05T20:31:56Z</time></trkpt><trkpt lat="-27.413907977609345" lon="-52.30728386168827"><ele>452.25</ele><time>2026-04-05T20:31:58Z</time></trkpt><trkpt lat="-27.413832477799055" lon="-52.30741750731154"><ele>451.5</ele><time>2026-04-05T20:31:59Z</time></trkpt><trkpt lat="-27.413749478765418" lon="-52.30754493645448"><ele>450.75</ele><time>2026-04-05T20:32:00Z</time></trkpt><trkpt lat="-27.41367611158572" lon="-52.307645620915075"><ele>450.0</ele><time>2026-04-05T20:32:01Z</time></trkpt><trkpt lat="-27.413609870428697" lon="-52.30774796886699"><ele>450.0</ele><time>2026-04-05T20:32:02Z</time></trkpt><trkpt lat="-27.41356509729809" lon="-52.30786963302771"><ele>450.0</ele><time>2026-04-05T20:32:03Z</time></trkpt><trkpt lat="-27.41351583803701" lon="-52.30806720719679"><ele>450.0</ele><time>2026-04-05T20:32:04Z</time></trkpt><trkpt lat="-27.413479044468666" lon="-52.30824743887327"><ele>451.0</ele><time>2026-04-05T20:32:05Z</time></trkpt><trkpt lat="-27.41343778630622" lon="-52.30839833063693"><ele>452.0</ele><time>2026-04-05T20:32:05.999Z</time></trkpt><trkpt lat="-27.4134267164594" lon="-52.30851117424618"><ele>453.0</ele><time>2026-04-05T20:32:06.999Z</time></trkpt><trkpt lat="-27.413428635561825" lon="-52.308594668022394"><ele>454.0</ele><time>2026-04-05T20:32:07.999Z</time></trkpt><trkpt lat="-27.41347735335478" lon="-52.30868357419601"><ele>455.0</ele><time>2026-04-05T20:32:08.999Z</time></trkpt><trkpt lat="-27.413497226615522" lon="-52.308799280958034"><ele>454.99999999999994</ele><time>2026-04-05T20:32:10.999Z</time></trkpt><trkpt lat="-27.413449316507386" lon="-52.30887158326675"><ele>455.0</ele><time>2026-04-05T20:32:13.999Z</time></trkpt><trkpt lat="-27.41351784478563" lon="-52.308937280122194"><ele>455.0</ele><time>2026-04-05T20:32:16.999Z</time></trkpt><trkpt lat="-27.413602984603813" lon="-52.30899605361606"><ele>455.0</ele><time>2026-04-05T20:32:18.999Z</time></trkpt><trkpt lat="-27.41367143091522" lon="-52.309022880765454"><ele>454.99999999999994</ele><time>2026-04-05T20:32:20.999Z</time></trkpt><trkpt lat="-27.41376001871078" lon="-52.3090204712533"><ele>455.0</ele><time>2026-04-05T20:32:23.999Z</time></trkpt><trkpt lat="-27.413846520536506" lon="-52.309019017173135"><ele>455.0</ele><time>2026-04-05T20:32:25.999Z</time></trkpt><trkpt lat="-27.413937644365966" lon="-52.308989303292826"><ele>455.0</ele><time>2026-04-05T20:32:27.999Z</time></trkpt><trkpt lat="-27.414033086244803" lon="-52.30899604136178"><ele>455.0</ele><time>2026-04-05T20:32:28.999Z</time></trkpt><trkpt lat="-27.414099422091994" lon="-52.30899339771098"><ele>455.0</ele><time>2026-04-05T20:32:29.999Z</time></trkpt><trkpt lat="-27.414144438032576" lon="-52.30892174036968"><ele>455.0</ele><time>2026-04-05T20:32:30.999Z</time></trkpt><trkpt lat="-27.41424684056727" lon="-52.308859511308405"><ele>455.0</ele><time>2026-04-05T20:32:32.999Z</time></trkpt><trkpt lat="-27.41433926060831" lon="-52.308799097341726"><ele>455.0</ele><time>2026-04-05T20:32:34.999Z</time></trkpt><trkpt lat="-27.414438808240654" lon="-52.30874198707313"><ele>455.0</ele><time>2026-04-05T20:32:36.999Z</time></trkpt><trkpt lat="-27.414528893033168" lon="-52.308691302499184"><ele>455.0</ele><time>2026-04-05T20:32:38.999Z</time></trkpt><trkpt lat="-27.41464180723569" lon="-52.30862743507115"><ele>455.0</ele><time>2026-04-05T20:32:40.999Z</time></trkpt><trkpt lat="-27.4147634924635" lon="-52.30854707431909"><ele>455.66666666666663</ele><time>2026-04-05T20:32:42.999Z</time></trkpt><trkpt lat="-27.414820836751677" lon="-52.30850037996268"><ele>456.3333333333333</ele><time>2026-04-05T20:32:43.999Z</time></trkpt><trkpt lat="-27.41488428886851" lon="-52.308454450457866"><ele>457.0</ele><time>2026-04-05T20:32:44.999Z</time></trkpt><trkpt lat="-27.414955354539924" lon="-52.308404455618394"><ele>457.66666666666663</ele><time>2026-04-05T20:32:45.999Z</time></trkpt><trkpt lat="-27.415010165163405" lon="-52.30836689750631"><ele>458.3333333333333</ele><time>2026-04-05T20:32:46.999Z</time></trkpt><trkpt lat="-27.41507599053656" lon="-52.308324333994705"><ele>459.0</ele><time>2026-04-05T20:32:48.999Z</time></trkpt><trkpt lat="-27.41511943086476" lon="-52.30824622928151"><ele>459.0</ele><time>2026-04-05T20:32:50.999Z</time></trkpt><trkpt lat="-27.41518094606975" lon="-52.308200715903716"><ele>459.0</ele><time>2026-04-05T20:32:54.998Z</time></trkpt><trkpt lat="-27.415248289396484" lon="-52.30813852630268"><ele>459.0</ele><time>2026-04-05T20:32:57.998Z</time></trkpt><trkpt lat="-27.41524759786578" lon="-52.30805614863671"><ele>459.0</ele><time>2026-04-05T20:33:00.998Z</time></trkpt><trkpt lat="-27.415268034510074" lon="-52.30797897192792"><ele>459.0</ele><time>2026-04-05T20:33:02.998Z</time></trkpt><trkpt lat="-27.415305302171202" lon="-52.30790203184993"><ele>459.0</ele><time>2026-04-05T20:33:04.998Z</time></trkpt><trkpt lat="-27.41534549095484" lon="-52.307827242627496"><ele>458.8333333333333</ele><time>2026-04-05T20:33:06.998Z</time></trkpt><trkpt lat="-27.41539188159062" lon="-52.307773238312485"><ele>458.66666666666663</ele><time>2026-04-05T20:33:09.998Z</time></trkpt><trkpt lat="-27.41548781401554" lon="-52.30773037698286"><ele>458.5</ele><time>2026-04-05T20:34:11.999Z</time></trkpt><trkpt lat="-27.41555416870672" lon="-52.307702299845495"><ele>458.3333333333333</ele><time>2026-04-05T20:34:12.999Z</time></trkpt><trkpt lat="-27.415616041235218" lon="-52.30767812288194"><ele>458.16666666666663</ele><time>2026-04-05T20:34:13.999Z</time></trkpt><trkpt lat="-27.415717844167265" lon="-52.30759800092009"><ele>458.0</ele><time>2026-04-05T20:34:15.999Z</time></trkpt><trkpt lat="-27.415782027600308" lon="-52.30753280584713"><ele>457.99999999999994</ele><time>2026-04-05T20:34:16.999Z</time></trkpt><trkpt lat="-27.415841112781173" lon="-52.307469328486775"><ele>458.0</ele><time>2026-04-05T20:34:17.999Z</time></trkpt><trkpt lat="-27.415903233766112" lon="-52.30739936294294"><ele>458.0</ele><time>2026-04-05T20:34:18.999Z</time></trkpt><trkpt lat="-27.415964067919987" lon="-52.30731126548878"><ele>458.0</ele><time>2026-04-05T20:34:19.999Z</time></trkpt><trkpt lat="-27.41600766953379" lon="-52.30722996507814"><ele>457.99999999999994</ele><time>2026-04-05T20:34:20.999Z</time></trkpt><trkpt lat="-27.416050187624336" lon="-52.307137051735495"><ele>458.0</ele><time>2026-04-05T20:34:22.999Z</time></trkpt><trkpt lat="-27.416044615968104" lon="-52.30704442976441"><ele>458.2</ele><time>2026-04-05T20:34:24.999Z</time></trkpt><trkpt lat="-27.416060990769267" lon="-52.306923532205396"><ele>458.4</ele><time>2026-04-05T20:34:26.999Z</time></trkpt><trkpt lat="-27.41606031362018" lon="-52.306800417542"><ele>458.59999999999997</ele><time>2026-04-05T20:34:28.999Z</time></trkpt><trkpt lat="-27.41606803946468" lon="-52.30669196166746"><ele>458.79999999999995</ele><time>2026-04-05T20:34:30.999Z</time></trkpt><trkpt lat="-27.416091577383693" lon="-52.30662388986424"><ele>459.0</ele><time>2026-04-05T20:34:32.999Z</time></trkpt><trkpt lat="-27.416147412442097" lon="-52.30679662767189"><ele>459.0</ele><time>2026-04-05T20:34:35.999Z</time></trkpt><trkpt lat="-27.416235998170773" lon="-52.30680687723477"><ele>459.0</ele><time>2026-04-05T20:34:37.999Z</time></trkpt><trkpt lat="-27.416304153670804" lon="-52.30683583818233"><ele>459.0</ele><time>2026-04-05T20:34:38.999Z</time></trkpt><trkpt lat="-27.416413322807617" lon="-52.30682595281528"><ele>459.0</ele><time>2026-04-05T20:34:39.999Z</time></trkpt><trkpt lat="-27.416497509408313" lon="-52.30683510550293"><ele>459.0</ele><time>2026-04-05T20:34:40.999Z</time></trkpt><trkpt lat="-27.41658613732277" lon="-52.3068445640057"><ele>459.0</ele><time>2026-04-05T20:34:41.999Z</time></trkpt><trkpt lat="-27.41666792033624" lon="-52.30685318487564"><ele>459.5</ele><time>2026-04-05T20:34:42.999Z</time></trkpt><trkpt lat="-27.416753006962896" lon="-52.30686199397902"><ele>460.0</ele><time>2026-04-05T20:34:43.999Z</time></trkpt><trkpt lat="-27.41684395074354" lon="-52.30687191400006"><ele>460.5</ele><time>2026-04-05T20:34:44.999Z</time></trkpt><trkpt lat="-27.416923632973198" lon="-52.30688068148124"><ele>461.0</ele><time>2026-04-05T20:34:45.999Z</time></trkpt><trkpt lat="-27.417001449045294" lon="-52.30688899818882"><ele>461.5</ele><time>2026-04-05T20:34:46.999Z</time></trkpt><trkpt lat="-27.41707168619808" lon="-52.306895982861036"><ele>462.0</ele><time>2026-04-05T20:34:47.999Z</time></trkpt><trkpt lat="-27.41713745671272" lon="-52.3069025233564"><ele>462.1666666666667</ele><time>2026-04-05T20:34:48.999Z</time></trkpt><trkpt lat="-27.417208009422882" lon="-52.30693383049358"><ele>462.33333333333337</ele><time>2026-04-05T20:34:50.999Z</time></trkpt><trkpt lat="-27.4173096229907" lon="-52.306975312460565"><ele>462.5</ele><time>2026-04-05T20:34:52.999Z</time></trkpt><trkpt lat="-27.417380784991543" lon="-52.30700436320517"><ele>462.6666666666667</ele><time>2026-04-05T20:34:53.999Z</time></trkpt><trkpt lat="-27.417365712458235" lon="-52.30711792671695"><ele>462.83333333333337</ele><time>2026-04-05T20:34:55.999Z</time></trkpt><trkpt lat="-27.41741086455029" lon="-52.30716973476299"><ele>463.0</ele><time>2026-04-05T20:34:57.998Z</time></trkpt><trkpt lat="-27.417460348747294" lon="-52.307224201483564"><ele>463.0</ele><time>2026-04-05T20:34:58.998Z</time></trkpt><trkpt lat="-27.417523738372935" lon="-52.307275633950006"><ele>463.0</ele><time>2026-04-05T20:35:00.998Z</time></trkpt><trkpt lat="-27.417804924470975" lon="-52.307062822852316"><ele>463.0</ele><time>2026-04-05T20:35:01.998Z</time></trkpt><trkpt lat="-27.417834829730946" lon="-52.30712726423337"><ele>463.00000000000006</ele><time>2026-04-05T20:35:07.998Z</time></trkpt><trkpt lat="-27.41787178859199" lon="-52.30718771993284"><ele>463.0</ele><time>2026-04-05T20:35:10.998Z</time></trkpt><trkpt lat="-27.417927899467646" lon="-52.30724629958928"><ele>463.0</ele><time>2026-04-05T20:35:13.998Z</time></trkpt><trkpt lat="-27.417975460032203" lon="-52.30729660783244"><ele>463.0</ele><time>2026-04-05T20:35:15.998Z</time></trkpt><trkpt lat="-27.41804686872496" lon="-52.30732981659555"><ele>463.00000000000006</ele><time>2026-04-05T20:35:17.998Z</time></trkpt><trkpt lat="-27.41811727457779" lon="-52.307309608829506"><ele>463.0</ele><time>2026-04-05T20:35:18.998Z</time></trkpt><trkpt lat="-27.418233091430434" lon="-52.307261263866586"><ele>463.6666666666667</ele><time>2026-04-05T20:35:19.998Z</time></trkpt><trkpt lat="-27.41835363712915" lon="-52.307190374987705"><ele>464.33333333333337</ele><time>2026-04-05T20:35:20.998Z</time></trkpt><trkpt lat="-27.41848321844276" lon="-52.30709045321484"><ele>465.0</ele><time>2026-04-05T20:35:21.998Z</time></trkpt><trkpt lat="-27.41864917288995" lon="-52.30709640264972"><ele>465.0</ele><time>2026-04-05T20:35:22.998Z</time></trkpt><trkpt lat="-27.418749730493733" lon="-52.30702911025065"><ele>465.0</ele><time>2026-04-05T20:35:23.998Z</time></trkpt><trkpt lat="-27.41880729352123" lon="-52.306990589758726"><ele>465.0</ele><time>2026-04-05T20:35:25.998Z</time></trkpt><trkpt lat="-27.418887401927435" lon="-52.30695838662983"><ele>465.0</ele><time>2026-04-05T20:35:27.998Z</time></trkpt><trkpt lat="-27.41893566764457" lon="-52.30726120209948"><ele>466.33333333333337</ele><time>2026-04-05T20:35:31.998Z</time></trkpt><trkpt lat="-27.41895052338443" lon="-52.307417239469956"><ele>467.6666666666667</ele><time>2026-04-05T20:35:32.998Z</time></trkpt><trkpt lat="-27.41896886344782" lon="-52.307625182772696"><ele>469.0</ele><time>2026-04-05T20:35:33.998Z</time></trkpt><trkpt lat="-27.418984198257355" lon="-52.3078413409281"><ele>469.0</ele><time>2026-04-05T20:35:34.998Z</time></trkpt><trkpt lat="-27.41900158349764" lon="-52.307979786334045"><ele>469.0</ele><time>2026-04-05T20:35:36Z</time></trkpt><trkpt lat="-27.419012095350272" lon="-52.3080953689777"><ele>469.0</ele><time>2026-04-05T20:35:37Z</time></trkpt><trkpt lat="-27.419022795831058" lon="-52.30819487143989"><ele>469.0</ele><time>2026-04-05T20:35:38Z</time></trkpt><trkpt lat="-27.41903074516604" lon="-52.308315260713705"><ele>469.0</ele><time>2026-04-05T20:35:39Z</time></trkpt><trkpt lat="-27.4190380402773" lon="-52.30840114955532"><ele>471.33333333333337</ele><time>2026-04-05T20:35:40Z</time></trkpt><trkpt lat="-27.41906034097963" lon="-52.308484447608116"><ele>473.6666666666667</ele><time>2026-04-05T20:35:41Z</time></trkpt><trkpt lat="-27.419117041974808" lon="-52.308619573834115"><ele>476.0</ele><time>2026-04-05T20:35:43Z</time></trkpt><trkpt lat="-27.41915455613611" lon="-52.30869572817631"><ele>478.33333333333337</ele><time>2026-04-05T20:35:44Z</time></trkpt><trkpt lat="-27.419187336137174" lon="-52.30876594404532"><ele>480.6666666666667</ele><time>2026-04-05T20:35:45Z</time></trkpt><trkpt lat="-27.419208730522982" lon="-52.3088457600614"><ele>483.0</ele><time>2026-04-05T20:35:47Z</time></trkpt><trkpt lat="-27.41928036593715" lon="-52.30890414678287"><ele>485.2</ele><time>2026-04-05T20:35:49Z</time></trkpt><trkpt lat="-27.419354285927405" lon="-52.308949869757136"><ele>487.4</ele><time>2026-04-05T20:35:50Z</time></trkpt><trkpt lat="-27.419330513059677" lon="-52.30903994346954"><ele>489.59999999999997</ele><time>2026-04-05T20:35:52Z</time></trkpt><trkpt lat="-27.419261310141657" lon="-52.30910956929305"><ele>491.79999999999995</ele><time>2026-04-05T20:35:54Z</time></trkpt><trkpt lat="-27.41922494832107" lon="-52.309184444055774"><ele>494.0</ele><time>2026-04-05T20:35:56Z</time></trkpt><trkpt lat="-27.419138563054883" lon="-52.309293469524945"><ele>494.0</ele><time>2026-04-05T20:35:58Z</time></trkpt><trkpt lat="-27.419051709978255" lon="-52.30935690325343"><ele>494.0</ele><time>2026-04-05T20:36:00Z</time></trkpt><trkpt lat="-27.41901798261608" lon="-52.30942055042323"><ele>494.0</ele><time>2026-04-05T20:36:02Z</time></trkpt><trkpt lat="-27.41894652537155" lon="-52.30943359755511"><ele>494.0</ele><time>2026-04-05T20:36:05Z</time></trkpt><trkpt lat="-27.418770421503144" lon="-52.309452342161464"><ele>494.0</ele><time>2026-04-05T20:36:07Z</time></trkpt><trkpt lat="-27.418698259494004" lon="-52.30945995376219"><ele>493.6</ele><time>2026-04-05T20:36:08Z</time></trkpt><trkpt lat="-27.41858387679276" lon="-52.309471520137144"><ele>493.2</ele><time>2026-04-05T20:36:10Z</time></trkpt><trkpt lat="-27.41847156453841" lon="-52.309480007195106"><ele>492.80000000000007</ele><time>2026-04-05T20:36:12Z</time></trkpt><trkpt lat="-27.418414306435487" lon="-52.30953318309505"><ele>492.40000000000003</ele><time>2026-04-05T20:36:14Z</time></trkpt><trkpt lat="-27.418402107316254" lon="-52.30961022320811"><ele>492.0</ele><time>2026-04-05T20:36:17.999Z</time></trkpt><trkpt lat="-27.418463777593644" lon="-52.30971800755202"><ele>493.0</ele><time>2026-04-05T20:36:19.999Z</time></trkpt><trkpt lat="-27.4185006339048" lon="-52.309785681504614"><ele>494.00000000000006</ele><time>2026-04-05T20:36:20.999Z</time></trkpt><trkpt lat="-27.418564278788736" lon="-52.30989121561674"><ele>495.00000000000006</ele><time>2026-04-05T20:36:21.999Z</time></trkpt><trkpt lat="-27.418650795895807" lon="-52.310028076820345"><ele>496.0</ele><time>2026-04-05T20:36:22.999Z</time></trkpt><trkpt lat="-27.41871867672994" lon="-52.310127241806306"><ele>497.0</ele><time>2026-04-05T20:36:23.999Z</time></trkpt><trkpt lat="-27.418794950576707" lon="-52.31022173002065"><ele>497.0</ele><time>2026-04-05T20:36:24.999Z</time></trkpt><trkpt lat="-27.418837744975985" lon="-52.310293405783845"><ele>497.00000000000006</ele><time>2026-04-05T20:36:25.999Z</time></trkpt><trkpt lat="-27.418877318444565" lon="-52.310433642446995"><ele>497.00000000000006</ele><time>2026-04-05T20:36:27.999Z</time></trkpt><trkpt lat="-27.41889713438407" lon="-52.310570509700874"><ele>497.0</ele><time>2026-04-05T20:36:29.999Z</time></trkpt><trkpt lat="-27.41881712356288" lon="-52.31054963526372"><ele>497.0</ele><time>2026-04-05T20:36:33.999Z</time></trkpt><trkpt lat="-27.41877608584078" lon="-52.310604758794135"><ele>497.3333333333333</ele><time>2026-04-05T20:36:35.999Z</time></trkpt><trkpt lat="-27.418729795706746" lon="-52.31070540669506"><ele>497.66666666666663</ele><time>2026-04-05T20:36:38.999Z</time></trkpt><trkpt lat="-27.418697233457078" lon="-52.31078069969823"><ele>498.0</ele><time>2026-04-05T20:36:41.999Z</time></trkpt><trkpt lat="-27.418694652955693" lon="-52.31085800029506"><ele>498.33333333333337</ele><time>2026-04-05T20:36:43.999Z</time></trkpt><trkpt lat="-27.418719400771895" lon="-52.31093183994956"><ele>498.6666666666667</ele><time>2026-04-05T20:36:45.999Z</time></trkpt><trkpt lat="-27.418706649233776" lon="-52.31102032738538"><ele>499.0</ele><time>2026-04-05T20:36:53.999Z</time></trkpt><trkpt lat="-27.418701713675645" lon="-52.31111483334312"><ele>499.00000000000006</ele><time>2026-04-05T20:36:56.999Z</time></trkpt><trkpt lat="-27.418684717038712" lon="-52.311201698642854"><ele>499.0</ele><time>2026-04-05T20:36:59.999Z</time></trkpt><trkpt lat="-27.41865284083365" lon="-52.31130478843213"><ele>499.0</ele><time>2026-04-05T20:37:03.998Z</time></trkpt><trkpt lat="-27.418613160759115" lon="-52.31138890409689"><ele>499.0</ele><time>2026-04-05T20:37:05.998Z</time></trkpt><trkpt lat="-27.418589258043607" lon="-52.3114905150846"><ele>499.00000000000006</ele><time>2026-04-05T20:37:08.998Z</time></trkpt><trkpt lat="-27.418603822366492" lon="-52.31156393015245"><ele>499.0</ele><time>2026-04-05T20:37:10.998Z</time></trkpt><trkpt lat="-27.4186953069819" lon="-52.31156530548551"><ele>500.33333333333337</ele><time>2026-04-05T20:37:13.998Z</time></trkpt><trkpt lat="-27.418773737296334" lon="-52.31150809181035"><ele>501.6666666666667</ele><time>2026-04-05T20:37:16.998Z</time></trkpt><trkpt lat="-27.418842590540393" lon="-52.31145432541072"><ele>503.0</ele><time>2026-04-05T20:37:18.998Z</time></trkpt><trkpt lat="-27.41890460196561" lon="-52.31140099517213"><ele>504.33333333333337</ele><time>2026-04-05T20:37:21.998Z</time></trkpt><trkpt lat="-27.41896496791561" lon="-52.3114735962551"><ele>505.6666666666667</ele><time>2026-04-05T20:37:23.998Z</time></trkpt><trkpt lat="-27.419037480977426" lon="-52.31148379516549"><ele>507.0</ele><time>2026-04-05T20:37:28.998Z</time></trkpt><trkpt lat="-27.419031530844773" lon="-52.31160467238634"><ele>511.20000000000005</ele><time>2026-04-05T20:37:33.998Z</time></trkpt><trkpt lat="-27.418967284030565" lon="-52.31172052871408"><ele>515.4000000000001</ele><time>2026-04-05T20:37:35.998Z</time></trkpt><trkpt lat="-27.418961678952677" lon="-52.31179417955802"><ele>519.5999999999999</ele><time>2026-04-05T20:37:36.998Z</time></trkpt><trkpt lat="-27.41895700228378" lon="-52.31187721102322"><ele>523.8</ele><time>2026-04-05T20:37:37.998Z</time></trkpt><trkpt lat="-27.418939118890346" lon="-52.31200230297228"><ele>528.0</ele><time>2026-04-05T20:37:39.998Z</time></trkpt><trkpt lat="-27.418927321543826" lon="-52.312107289977035"><ele>528.0</ele><time>2026-04-05T20:37:42Z</time></trkpt><trkpt lat="-27.418899735240952" lon="-52.31223233405018"><ele>528.0</ele><time>2026-04-05T20:37:45Z</time></trkpt><trkpt lat="-27.41887198389401" lon="-52.31231907192688"><ele>528.0</ele><time>2026-04-05T20:37:46Z</time></trkpt><trkpt lat="-27.41886691840651" lon="-52.312410476041045"><ele>528.0</ele><time>2026-04-05T20:37:47Z</time></trkpt><trkpt lat="-27.41883028601988" lon="-52.312536156364615"><ele>528.0</ele><time>2026-04-05T20:37:49Z</time></trkpt><trkpt lat="-27.418761904316295" lon="-52.31262935020187"><ele>525.6666666666666</ele><time>2026-04-05T20:37:51Z</time></trkpt><trkpt lat="-27.41869347352915" lon="-52.31270289968967"><ele>523.3333333333334</ele><time>2026-04-05T20:37:53Z</time></trkpt><trkpt lat="-27.41867039564371" lon="-52.312774603693086"><ele>521.0</ele><time>2026-04-05T20:37:57Z</time></trkpt><trkpt lat="-27.418651574849026" lon="-52.312847596983886"><ele>518.6666666666667</ele><time>2026-04-05T20:37:59Z</time></trkpt><trkpt lat="-27.418597819401104" lon="-52.31292551315434"><ele>516.3333333333334</ele><time>2026-04-05T20:38:01Z</time></trkpt><trkpt lat="-27.418607387153155" lon="-52.31302007161507"><ele>514.0</ele><time>2026-04-05T20:38:03Z</time></trkpt><trkpt lat="-27.418627176855487" lon="-52.31316226078318"><ele>513.6</ele><time>2026-04-05T20:38:05Z</time></trkpt><trkpt lat="-27.418638213815928" lon="-52.31329437089686"><ele>513.2</ele><time>2026-04-05T20:38:07Z</time></trkpt><trkpt lat="-27.418642780170096" lon="-52.313442491696144"><ele>512.8000000000001</ele><time>2026-04-05T20:38:09Z</time></trkpt><trkpt lat="-27.41865821968589" lon="-52.313541135806396"><ele>512.4</ele><time>2026-04-05T20:38:10Z</time></trkpt><trkpt lat="-27.418664752914264" lon="-52.31361918813189"><ele>512.0</ele><time>2026-04-05T20:38:11Z</time></trkpt><trkpt lat="-27.41867932766554" lon="-52.31369122926952"><ele>512.0</ele><time>2026-04-05T20:38:12Z</time></trkpt><trkpt lat="-27.418724806888196" lon="-52.3138286622742"><ele>512.0</ele><time>2026-04-05T20:38:14Z</time></trkpt><trkpt lat="-27.418740096469424" lon="-52.31391395317061"><ele>512.0</ele><time>2026-04-05T20:38:15Z</time></trkpt><trkpt lat="-27.41874075874196" lon="-52.314036781947586"><ele>512.0</ele><time>2026-04-05T20:38:16Z</time></trkpt><trkpt lat="-27.41874252193982" lon="-52.31412094764115"><ele>512.0</ele><time>2026-04-05T20:38:17Z</time></trkpt><trkpt lat="-27.41879811456568" lon="-52.31424553079036"><ele>515.8333333333333</ele><time>2026-04-05T20:38:19Z</time></trkpt><trkpt lat="-27.41882928025375" lon="-52.31432144846769"><ele>519.6666666666666</ele><time>2026-04-05T20:38:20Z</time></trkpt><trkpt lat="-27.41886801570471" lon="-52.314416193885435"><ele>523.5</ele><time>2026-04-05T20:38:21Z</time></trkpt><trkpt lat="-27.418897588895675" lon="-52.31449491195253"><ele>527.3333333333334</ele><time>2026-04-05T20:38:22Z</time></trkpt><trkpt lat="-27.41896495191091" lon="-52.31458265746286"><ele>531.1666666666667</ele><time>2026-04-05T20:38:23Z</time></trkpt><trkpt lat="-27.419014741186036" lon="-52.31464612825023"><ele>535.0</ele><time>2026-04-05T20:38:23.999Z</time></trkpt><trkpt lat="-27.41906807795526" lon="-52.31471257442665"><ele>532.2</ele><time>2026-04-05T20:38:24.999Z</time></trkpt><trkpt lat="-27.419118160941323" lon="-52.31478031504557"><ele>529.4</ele><time>2026-04-05T20:38:25.999Z</time></trkpt><trkpt lat="-27.419145006137295" lon="-52.31486495008448"><ele>526.6</ele><time>2026-04-05T20:38:26.999Z</time></trkpt><trkpt lat="-27.419159704867848" lon="-52.314943653895874"><ele>523.8</ele><time>2026-04-05T20:38:27.999Z</time></trkpt><trkpt lat="-27.419139512816287" lon="-52.315069478840385"><ele>521.0</ele><time>2026-04-05T20:38:29.999Z</time></trkpt><trkpt lat="-27.41907093631168" lon="-52.31517574574675"><ele>521.0</ele><time>2026-04-05T20:38:31.999Z</time></trkpt><trkpt lat="-27.41897268783234" lon="-52.3152402941247"><ele>521.0</ele><time>2026-04-05T20:38:33.999Z</time></trkpt><trkpt lat="-27.418902117462423" lon="-52.31527908079642"><ele>521.0</ele><time>2026-04-05T20:38:34.999Z</time></trkpt><trkpt lat="-27.418835528940672" lon="-52.31530555382873"><ele>521.0</ele><time>2026-04-05T20:38:35.999Z</time></trkpt><trkpt lat="-27.418762447360944" lon="-52.31532495677325"><ele>521.0</ele><time>2026-04-05T20:38:36.999Z</time></trkpt><trkpt lat="-27.41866178416054" lon="-52.315360530341145"><ele>521.0</ele><time>2026-04-05T20:38:38.999Z</time></trkpt><trkpt lat="-27.41855606125848" lon="-52.31539667642453"><ele>517.6666666666666</ele><time>2026-04-05T20:38:40.999Z</time></trkpt><trkpt lat="-27.418472743853407" lon="-52.315430691926295"><ele>514.3333333333333</ele><time>2026-04-05T20:38:41.999Z</time></trkpt><trkpt lat="-27.418389945340873" lon="-52.31546684887624"><ele>511.0</ele><time>2026-04-05T20:38:42.999Z</time></trkpt><trkpt lat="-27.418309140657712" lon="-52.315501791463014"><ele>507.66666666666663</ele><time>2026-04-05T20:38:43.999Z</time></trkpt><trkpt lat="-27.41823911528276" lon="-52.31554833527874"><ele>504.3333333333333</ele><time>2026-04-05T20:38:44.999Z</time></trkpt><trkpt lat="-27.418168589016" lon="-52.315583877356985"><ele>501.0</ele><time>2026-04-05T20:38:45.999Z</time></trkpt><trkpt lat="-27.418106086324464" lon="-52.31560835758395"><ele>499.8</ele><time>2026-04-05T20:38:46.999Z</time></trkpt><trkpt lat="-27.41800051543996" lon="-52.31563330796264"><ele>498.6</ele><time>2026-04-05T20:38:48.999Z</time></trkpt><trkpt lat="-27.41790393187274" lon="-52.31564963868944"><ele>497.4</ele><time>2026-04-05T20:38:50.999Z</time></trkpt><trkpt lat="-27.4178365638287" lon="-52.31564759520802"><ele>496.2</ele><time>2026-04-05T20:38:53.999Z</time></trkpt><trkpt lat="-27.417765293393312" lon="-52.31558431990025"><ele>495.0</ele><time>2026-04-05T20:38:55.999Z</time></trkpt><trkpt lat="-27.417693179515943" lon="-52.31549954823538"><ele>494.2</ele><time>2026-04-05T20:38:57.999Z</time></trkpt><trkpt lat="-27.417610308503022" lon="-52.31545684184228"><ele>493.4</ele><time>2026-04-05T20:38:59.999Z</time></trkpt><trkpt lat="-27.41753156924164" lon="-52.31540450758618"><ele>492.6</ele><time>2026-04-05T20:39:01.999Z</time></trkpt><trkpt lat="-27.41745628916914" lon="-52.315354759568535"><ele>491.8</ele><time>2026-04-05T20:39:03.999Z</time></trkpt><trkpt lat="-27.417376834512144" lon="-52.31530238735947"><ele>491.0</ele><time>2026-04-05T20:39:05.999Z</time></trkpt><trkpt lat="-27.417288363439354" lon="-52.31524450224143"><ele>491.0</ele><time>2026-04-05T20:39:07.999Z</time></trkpt><trkpt lat="-27.417203989296514" lon="-52.31517868600105"><ele>491.0</ele><time>2026-04-05T20:39:09.999Z</time></trkpt><trkpt lat="-27.41715218743459" lon="-52.315120383995044"><ele>491.0</ele><time>2026-04-05T20:39:11.998Z</time></trkpt><trkpt lat="-27.41707760404949" lon="-52.31510233716062"><ele>491.0</ele><time>2026-04-05T20:39:16.998Z</time></trkpt><trkpt lat="-27.41700483877216" lon="-52.315045230662534"><ele>491.0</ele><time>2026-04-05T20:39:18.998Z</time></trkpt><trkpt lat="-27.41689947674584" lon="-52.31496164721582"><ele>490.2857142857143</ele><time>2026-04-05T20:39:21.998Z</time></trkpt><trkpt lat="-27.416845005589764" lon="-52.31491875848065"><ele>489.57142857142856</ele><time>2026-04-05T20:39:23.998Z</time></trkpt><trkpt lat="-27.41678662167235" lon="-52.31487353493501"><ele>488.85714285714283</ele><time>2026-04-05T20:39:25.998Z</time></trkpt><trkpt lat="-27.41673272352298" lon="-52.3148313778958"><ele>488.1428571428571</ele><time>2026-04-05T20:39:27.998Z</time></trkpt><trkpt lat="-27.41665562203151" lon="-52.31476987541603"><ele>487.42857142857144</ele><time>2026-04-05T20:39:29.998Z</time></trkpt><trkpt lat="-27.416593411993123" lon="-52.31472163261647"><ele>486.71428571428567</ele><time>2026-04-05T20:39:31.998Z</time></trkpt><trkpt lat="-27.4165371951234" lon="-52.31468177154686"><ele>486.0</ele><time>2026-04-05T20:39:32.998Z</time></trkpt><trkpt lat="-27.41646098502941" lon="-52.31462714212387"><ele>484.75</ele><time>2026-04-05T20:39:34.998Z</time></trkpt><trkpt lat="-27.416292307192776" lon="-52.31477823389999"><ele>483.5</ele><time>2026-04-05T20:39:37.998Z</time></trkpt><trkpt lat="-27.416207284068346" lon="-52.31480742147338"><ele>482.25</ele><time>2026-04-05T20:39:42.998Z</time></trkpt><trkpt lat="-27.41612324196974" lon="-52.314788918921636"><ele>481.0</ele><time>2026-04-05T20:39:46.998Z</time></trkpt><trkpt lat="-27.41602889509286" lon="-52.314754638717325"><ele>481.00000000000006</ele><time>2026-04-05T20:39:49Z</time></trkpt><trkpt lat="-27.415949158013937" lon="-52.3147012104686"><ele>481.0</ele><time>2026-04-05T20:39:52Z</time></trkpt><trkpt lat="-27.415889239000617" lon="-52.314668670601485"><ele>481.0</ele><time>2026-04-05T20:39:53Z</time></trkpt><trkpt lat="-27.415752937096393" lon="-52.314657398352495"><ele>481.0</ele><time>2026-04-05T20:39:57Z</time></trkpt><trkpt lat="-27.415813287518052" lon="-52.31469838434923"><ele>481.00000000000006</ele><time>2026-04-05T20:40:00Z</time></trkpt><trkpt lat="-27.415771060588394" lon="-52.31475461001994"><ele>481.0</ele><time>2026-04-05T20:40:02Z</time></trkpt><trkpt lat="-27.415744951531998" lon="-52.3148613755127"><ele>481.00000000000006</ele><time>2026-04-05T20:40:04Z</time></trkpt><trkpt lat="-27.415790922976026" lon="-52.31497781971441"><ele>481.0</ele><time>2026-04-05T20:40:06Z</time></trkpt><trkpt lat="-27.41585901759259" lon="-52.315034216635404"><ele>481.0</ele><time>2026-04-05T20:40:07Z</time></trkpt><trkpt lat="-27.415913935832492" lon="-52.3150981253704"><ele>481.0</ele><time>2026-04-05T20:40:08Z</time></trkpt><trkpt lat="-27.415955385398934" lon="-52.31517050542512"><ele>481.00000000000006</ele><time>2026-04-05T20:40:09Z</time></trkpt><trkpt lat="-27.415973327572686" lon="-52.31526155889552"><ele>481.0</ele><time>2026-04-05T20:40:11Z</time></trkpt><trkpt lat="-27.41598317492406" lon="-52.315354781731365"><ele>481.00000000000006</ele><time>2026-04-05T20:40:14Z</time></trkpt><trkpt lat="-27.41598307655737" lon="-52.31545681373813"><ele>481.0</ele><time>2026-04-05T20:40:16Z</time></trkpt><trkpt lat="-27.415926764988978" lon="-52.31550407228248"><ele>481.0</ele><time>2026-04-05T20:40:20Z</time></trkpt><trkpt lat="-27.41584542942307" lon="-52.31556798827886"><ele>481.0</ele><time>2026-04-05T20:40:22Z</time></trkpt><trkpt lat="-27.415824476003856" lon="-52.315651725233515"><ele>481.00000000000006</ele><time>2026-04-05T20:40:24Z</time></trkpt><trkpt lat="-27.41576362683128" lon="-52.315679829170854"><ele>481.0</ele><time>2026-04-05T20:40:28Z</time></trkpt><trkpt lat="-27.415707866707233" lon="-52.31563991647421"><ele>482.83333333333337</ele><time>2026-04-05T20:40:28.999Z</time></trkpt><trkpt lat="-27.41562599485" lon="-52.315644823976164"><ele>484.6666666666667</ele><time>2026-04-05T20:40:30.999Z</time></trkpt><trkpt lat="-27.415526995919922" lon="-52.315710360526836"><ele>486.5</ele><time>2026-04-05T20:40:32.999Z</time></trkpt><trkpt lat="-27.415518290409846" lon="-52.31563985085216"><ele>488.33333333333337</ele><time>2026-04-05T20:40:42.999Z</time></trkpt><trkpt lat="-27.415550163758233" lon="-52.31570699671364"><ele>490.1666666666667</ele><time>2026-04-05T20:41:13.999Z</time></trkpt><trkpt lat="-27.415608241663076" lon="-52.31573624348074"><ele>492.0</ele><time>2026-04-05T20:41:21.998Z</time></trkpt><trkpt lat="-27.415675234629997" lon="-52.31573445724966"><ele>492.0</ele><time>2026-04-05T20:41:46.998Z</time></trkpt><trkpt lat="-27.41569396840538" lon="-52.31561645660714"><ele>492.0</ele><time>2026-04-05T20:44:02Z</time></trkpt><trkpt lat="-27.41576893218696" lon="-52.31561316322091"><ele>492.0</ele><time>2026-04-05T20:44:06Z</time></trkpt><trkpt lat="-27.415714079040754" lon="-52.315664107305864"><ele>492.0</ele><time>2026-04-05T20:44:11Z</time></trkpt><trkpt lat="-27.41566966157734" lon="-52.315744080868086"><ele>492.0</ele><time>2026-04-05T20:45:25.999Z</time></trkpt><trkpt lat="-27.415619361649178" lon="-52.31569547899043"><ele>492.0</ele><time>2026-04-05T20:45:50.998Z</time></trkpt><trkpt lat="-27.41555339437336" lon="-52.31572704348736"><ele>492.0</ele><time>2026-04-05T20:47:14.999Z</time></trkpt><trkpt lat="-27.41549501722294" lon="-52.315652582611854"><ele>492.0</ele><time>2026-04-05T20:47:34.998Z</time></trkpt><trkpt lat="-27.415521754120977" lon="-52.3155771734726"><ele>492.0</ele><time>2026-04-05T20:47:36.998Z</time></trkpt><trkpt lat="-27.415624562021385" lon="-52.31557496012798"><ele>492.0</ele><time>2026-04-05T20:47:38.998Z</time></trkpt><trkpt lat="-27.415680343254987" lon="-52.31560966081943"><ele>492.0</ele><time>2026-04-05T20:47:39.998Z</time></trkpt><trkpt lat="-27.41574031108492" lon="-52.31566613564026"><ele>492.0</ele><time>2026-04-05T20:47:40.998Z</time></trkpt><trkpt lat="-27.41579551020525" lon="-52.31571215479526"><ele>492.0</ele><time>2026-04-05T20:47:41.998Z</time></trkpt><trkpt lat="-27.415870533712265" lon="-52.31574308065671"><ele>492.00000000000006</ele><time>2026-04-05T20:47:43.998Z</time></trkpt><trkpt lat="-27.415972086398384" lon="-52.315836674831246"><ele>492.00000000000006</ele><time>2026-04-05T20:47:47.998Z</time></trkpt><trkpt lat="-27.41595110727726" lon="-52.315946968300516"><ele>492.0</ele><time>2026-04-05T20:47:49.998Z</time></trkpt><trkpt lat="-27.415954875465495" lon="-52.316018627302135"><ele>492.0</ele><time>2026-04-05T20:47:50.998Z</time></trkpt><trkpt lat="-27.41587882634198" lon="-52.31599026969722"><ele>492.0</ele><time>2026-04-05T20:47:52.998Z</time></trkpt><trkpt lat="-27.415970721049028" lon="-52.316168701578476"><ele>492.00000000000006</ele><time>2026-04-05T20:47:53.998Z</time></trkpt><trkpt lat="-27.415992742363162" lon="-52.316250514851504"><ele>492.00000000000006</ele><time>2026-04-05T20:47:56.998Z</time></trkpt><trkpt lat="-27.41604894914707" lon="-52.31628550054064"><ele>492.0</ele><time>2026-04-05T20:47:58.998Z</time></trkpt><trkpt lat="-27.41612248779053" lon="-52.316343627476265"><ele>492.0</ele><time>2026-04-05T20:48:00.998Z</time></trkpt><trkpt lat="-27.416163426655082" lon="-52.31641549784957"><ele>494.8</ele><time>2026-04-05T20:48:02.998Z</time></trkpt><trkpt lat="-27.416216402687564" lon="-52.31649955872621"><ele>497.6</ele><time>2026-04-05T20:48:04.998Z</time></trkpt><trkpt lat="-27.416278206818234" lon="-52.31657532751124"><ele>500.40000000000003</ele><time>2026-04-05T20:48:06.998Z</time></trkpt><trkpt lat="-27.416305795502442" lon="-52.31666637840654"><ele>503.20000000000005</ele><time>2026-04-05T20:48:08.998Z</time></trkpt><trkpt lat="-27.416242531361224" lon="-52.31659535545304"><ele>506.0</ele><time>2026-04-05T20:48:10Z</time></trkpt><trkpt lat="-27.416377344791425" lon="-52.316756741683264"><ele>505.99999999999994</ele><time>2026-04-05T20:48:11Z</time></trkpt><trkpt lat="-27.416422975092694" lon="-52.316827986391026"><ele>506.0</ele><time>2026-04-05T20:48:12Z</time></trkpt><trkpt lat="-27.416506937439838" lon="-52.31689646514866"><ele>506.0</ele><time>2026-04-05T20:48:14Z</time></trkpt><trkpt lat="-27.416549903609276" lon="-52.316984338920285"><ele>506.0</ele><time>2026-04-05T20:48:15Z</time></trkpt><trkpt lat="-27.416639080479662" lon="-52.31696928574152"><ele>505.99999999999994</ele><time>2026-04-05T20:48:20Z</time></trkpt><trkpt lat="-27.41666410231944" lon="-52.31687882797353"><ele>506.0</ele><time>2026-04-05T20:48:22Z</time></trkpt><trkpt lat="-27.41665640582164" lon="-52.31680424656954"><ele>506.00000000000006</ele><time>2026-04-05T20:48:23Z</time></trkpt><trkpt lat="-27.416632596606874" lon="-52.31673322069955"><ele>506.0</ele><time>2026-04-05T20:48:24Z</time></trkpt><trkpt lat="-27.416642922962033" lon="-52.3166556605255"><ele>506.00000000000006</ele><time>2026-04-05T20:48:28Z</time></trkpt><trkpt lat="-27.416710556757383" lon="-52.31661598146389"><ele>506.00000000000006</ele><time>2026-04-05T20:48:31Z</time></trkpt><trkpt lat="-27.416792089383502" lon="-52.31660070723288"><ele>506.0</ele><time>2026-04-05T20:48:33Z</time></trkpt><trkpt lat="-27.41685243640103" lon="-52.31664709812648"><ele>506.00000000000006</ele><time>2026-04-05T20:48:36Z</time></trkpt><trkpt lat="-27.416926525288506" lon="-52.31664988775942"><ele>506.00000000000006</ele><time>2026-04-05T20:48:40Z</time></trkpt><trkpt lat="-27.416996059875636" lon="-52.31662850553725"><ele>505.99999999999994</ele><time>2026-04-05T20:48:42Z</time></trkpt><trkpt lat="-27.417053467306015" lon="-52.31666533076288"><ele>506.0</ele><time>2026-04-05T20:48:44Z</time></trkpt><trkpt lat="-27.417138950199863" lon="-52.31659280980765"><ele>506.0</ele><time>2026-04-05T20:48:45Z</time></trkpt><trkpt lat="-27.41720106907734" lon="-52.316572385211146"><ele>506.0</ele><time>2026-04-05T20:48:46Z</time></trkpt><trkpt lat="-27.417231449161648" lon="-52.316647141079144"><ele>505.99999999999994</ele><time>2026-04-05T20:48:53Z</time></trkpt><trkpt lat="-27.41727961356565" lon="-52.31671382841759"><ele>506.0</ele><time>2026-04-05T20:48:54.999Z</time></trkpt><trkpt lat="-27.417346724016213" lon="-52.31674266067457"><ele>504.16666666666663</ele><time>2026-04-05T20:48:55.999Z</time></trkpt><trkpt lat="-27.417443074633667" lon="-52.31678305158195"><ele>502.3333333333333</ele><time>2026-04-05T20:48:57.999Z</time></trkpt><trkpt lat="-27.41749841513813" lon="-52.316838222516274"><ele>500.5</ele><time>2026-04-05T20:49:00.999Z</time></trkpt><trkpt lat="-27.41757079513366" lon="-52.316897894299274"><ele>498.66666666666663</ele><time>2026-04-05T20:49:02.999Z</time></trkpt><trkpt lat="-27.41764600257444" lon="-52.31687424762858"><ele>496.8333333333333</ele><time>2026-04-05T20:49:05.999Z</time></trkpt><trkpt lat="-27.417691390427507" lon="-52.31681850421438"><ele>495.0</ele><time>2026-04-05T20:49:07.999Z</time></trkpt><trkpt lat="-27.417671427276193" lon="-52.316724478067606"><ele>495.0</ele><time>2026-04-05T20:49:09.999Z</time></trkpt><trkpt lat="-27.417627496835042" lon="-52.316628095762965"><ele>495.0</ele><time>2026-04-05T20:49:11.999Z</time></trkpt><trkpt lat="-27.41757303414077" lon="-52.31656878671593"><ele>495.0</ele><time>2026-04-05T20:49:13.999Z</time></trkpt><trkpt lat="-27.4176490360853" lon="-52.316522312378694"><ele>495.0</ele><time>2026-04-05T20:49:18.999Z</time></trkpt><trkpt lat="-27.417721297531827" lon="-52.31649924386073"><ele>495.0</ele><time>2026-04-05T20:49:21.999Z</time></trkpt><trkpt lat="-27.41778588981492" lon="-52.31648889228211"><ele>495.0</ele><time>2026-04-05T20:49:26.999Z</time></trkpt><trkpt lat="-27.417852628084283" lon="-52.316509194206475"><ele>495.0</ele><time>2026-04-05T20:49:29.999Z</time></trkpt><trkpt lat="-27.417909623478153" lon="-52.316468233341055"><ele>495.0</ele><time>2026-04-05T20:49:32.999Z</time></trkpt><trkpt lat="-27.417966043027867" lon="-52.31640260357386"><ele>495.0</ele><time>2026-04-05T20:49:34.999Z</time></trkpt><trkpt lat="-27.418046470497572" lon="-52.31633319110182"><ele>495.0</ele><time>2026-04-05T20:49:35.999Z</time></trkpt><trkpt lat="-27.41811954856683" lon="-52.316262649679395"><ele>495.0</ele><time>2026-04-05T20:49:36.999Z</time></trkpt><trkpt lat="-27.41817201840551" lon="-52.31620311853386"><ele>495.0</ele><time>2026-04-05T20:49:37.999Z</time></trkpt><trkpt lat="-27.418156281735236" lon="-52.3161328913303"><ele>495.0</ele><time>2026-04-05T20:49:41.998Z</time></trkpt><trkpt lat="-27.41815922544151" lon="-52.31620406120362"><ele>495.0</ele><time>2026-04-05T20:54:38Z</time></trkpt><trkpt lat="-27.418123615581546" lon="-52.31613109014591"><ele>495.0</ele><time>2026-04-05T20:59:59.999Z</time></trkpt><trkpt lat="-27.418079423565487" lon="-52.316071252918356"><ele>495.0</ele><time>2026-04-05T21:00:02.999Z</time></trkpt><trkpt lat="-27.418002821253236" lon="-52.31598432164443"><ele>495.0</ele><time>2026-04-05T21:00:05.999Z</time></trkpt><trkpt lat="-27.41792683628033" lon="-52.315902397812664"><ele>495.0</ele><time>2026-04-05T21:00:06.999Z</time></trkpt><trkpt lat="-27.417881909481164" lon="-52.315825816352394"><ele>494.2</ele><time>2026-04-05T21:00:07.999Z</time></trkpt><trkpt lat="-27.4177890010261" lon="-52.31566983419375"><ele>493.4</ele><time>2026-04-05T21:00:09.999Z</time></trkpt><trkpt lat="-27.41774130018717" lon="-52.31558799238439"><ele>492.6</ele><time>2026-04-05T21:00:10.999Z</time></trkpt><trkpt lat="-27.41767086583461" lon="-52.315514398326314"><ele>491.8</ele><time>2026-04-05T21:00:11.999Z</time></trkpt><trkpt lat="-27.417601656059038" lon="-52.3154589135241"><ele>491.0</ele><time>2026-04-05T21:00:12.999Z</time></trkpt><trkpt lat="-27.417532228578768" lon="-52.31540541227974"><ele>490.99999999999994</ele><time>2026-04-05T21:00:13.999Z</time></trkpt><trkpt lat="-27.417459532890522" lon="-52.315349682040946"><ele>491.0</ele><time>2026-04-05T21:00:14.999Z</time></trkpt><trkpt lat="-27.417390384091927" lon="-52.315299429662524"><ele>491.0</ele><time>2026-04-05T21:00:15.999Z</time></trkpt><trkpt lat="-27.417322910986186" lon="-52.31524978688036"><ele>491.0</ele><time>2026-04-05T21:00:16.999Z</time></trkpt><trkpt lat="-27.417250869000775" lon="-52.3152159021086"><ele>490.99999999999994</ele><time>2026-04-05T21:00:17.999Z</time></trkpt><trkpt lat="-27.417195660877223" lon="-52.31517214981866"><ele>491.0</ele><time>2026-04-05T21:00:18.999Z</time></trkpt><trkpt lat="-27.41711757538827" lon="-52.31511086799477"><ele>489.5</ele><time>2026-04-05T21:00:19.999Z</time></trkpt><trkpt lat="-27.416977467272776" lon="-52.31500071701039"><ele>488.0</ele><time>2026-04-05T21:00:20.998Z</time></trkpt><trkpt lat="-27.416855616597495" lon="-52.314904235847784"><ele>486.5</ele><time>2026-04-05T21:00:21.998Z</time></trkpt><trkpt lat="-27.41675253301425" lon="-52.314824058556795"><ele>485.0</ele><time>2026-04-05T21:00:22.998Z</time></trkpt><trkpt lat="-27.416656159536586" lon="-52.314747542300154"><ele>485.16666666666663</ele><time>2026-04-05T21:00:23.998Z</time></trkpt><trkpt lat="-27.416567714219788" lon="-52.314681332743056"><ele>485.3333333333333</ele><time>2026-04-05T21:00:24.998Z</time></trkpt><trkpt lat="-27.416498656983794" lon="-52.31463217798586"><ele>485.5</ele><time>2026-04-05T21:00:25.998Z</time></trkpt><trkpt lat="-27.41641733366152" lon="-52.31457389853473"><ele>485.66666666666663</ele><time>2026-04-05T21:00:26.998Z</time></trkpt><trkpt lat="-27.416348236009245" lon="-52.31452470130957"><ele>485.8333333333333</ele><time>2026-04-05T21:00:27.998Z</time></trkpt><trkpt lat="-27.41628102441647" lon="-52.31447686083211"><ele>486.0</ele><time>2026-04-05T21:00:28.998Z</time></trkpt><trkpt lat="-27.416198792536672" lon="-52.314418517383594"><ele>482.66666666666663</ele><time>2026-04-05T21:00:29.998Z</time></trkpt><trkpt lat="-27.416085946141106" lon="-52.314259708151376"><ele>479.3333333333333</ele><time>2026-04-05T21:00:30.998Z</time></trkpt><trkpt lat="-27.415976124455295" lon="-52.31409738531541"><ele>476.0</ele><time>2026-04-05T21:00:31.998Z</time></trkpt><trkpt lat="-27.415885928764965" lon="-52.313941157548356"><ele>474.5</ele><time>2026-04-05T21:00:32.998Z</time></trkpt><trkpt lat="-27.41581757090282" lon="-52.31383231381868"><ele>473.0</ele><time>2026-04-05T21:00:33.998Z</time></trkpt><trkpt lat="-27.41575688674421" lon="-52.3137140497469"><ele>471.5</ele><time>2026-04-05T21:00:34.998Z</time></trkpt><trkpt lat="-27.415711905709102" lon="-52.31354361489217"><ele>470.0</ele><time>2026-04-05T21:00:35.998Z</time></trkpt><trkpt lat="-27.415670783816246" lon="-52.313326810036784"><ele>470.0</ele><time>2026-04-05T21:00:36.998Z</time></trkpt><trkpt lat="-27.415606701544085" lon="-52.31307967234378"><ele>470.0</ele><time>2026-04-05T21:00:37.998Z</time></trkpt><trkpt lat="-27.415549836401524" lon="-52.31286693584488"><ele>470.0</ele><time>2026-04-05T21:00:38.998Z</time></trkpt><trkpt lat="-27.41549856050503" lon="-52.312700895310314"><ele>468.6</ele><time>2026-04-05T21:00:39.998Z</time></trkpt><trkpt lat="-27.415469060602668" lon="-52.31256771812094"><ele>467.2</ele><time>2026-04-05T21:00:40.998Z</time></trkpt><trkpt lat="-27.415454992013416" lon="-52.31245855197208"><ele>465.79999999999995</ele><time>2026-04-05T21:00:41.998Z</time></trkpt><trkpt lat="-27.4154456120066" lon="-52.31234515307881"><ele>464.4</ele><time>2026-04-05T21:00:42.998Z</time></trkpt><trkpt lat="-27.415428408525482" lon="-52.31223258147057"><ele>463.0</ele><time>2026-04-05T21:00:43.998Z</time></trkpt><trkpt lat="-27.415400570438454" lon="-52.31213385583155"><ele>462.79999999999995</ele><time>2026-04-05T21:00:45Z</time></trkpt><trkpt lat="-27.415373534224656" lon="-52.31203738125814"><ele>462.59999999999997</ele><time>2026-04-05T21:00:46Z</time></trkpt><trkpt lat="-27.415348770025805" lon="-52.3119279021169"><ele>462.40000000000003</ele><time>2026-04-05T21:00:47Z</time></trkpt><trkpt lat="-27.41532329585605" lon="-52.31181414745045"><ele>462.20000000000005</ele><time>2026-04-05T21:00:48Z</time></trkpt><trkpt lat="-27.41529338236192" lon="-52.31168669247004"><ele>462.0</ele><time>2026-04-05T21:00:49Z</time></trkpt><trkpt lat="-27.41527247919443" lon="-52.31154237014506"><ele>461.33333333333337</ele><time>2026-04-05T21:00:50Z</time></trkpt><trkpt lat="-27.415264084197286" lon="-52.31138595791845"><ele>460.6666666666667</ele><time>2026-04-05T21:00:51Z</time></trkpt><trkpt lat="-27.415287926879405" lon="-52.311213304544275"><ele>460.0</ele><time>2026-04-05T21:00:52Z</time></trkpt><trkpt lat="-27.4153419334934" lon="-52.31102098214698"><ele>460.0</ele><time>2026-04-05T21:00:53Z</time></trkpt><trkpt lat="-27.41541817918968" lon="-52.31081222872458"><ele>460.0</ele><time>2026-04-05T21:00:54Z</time></trkpt><trkpt lat="-27.41551861969789" lon="-52.310575090160725"><ele>460.0</ele><time>2026-04-05T21:00:55Z</time></trkpt><trkpt lat="-27.41561464147606" lon="-52.31031232885674"><ele>461.0</ele><time>2026-04-05T21:00:56Z</time></trkpt><trkpt lat="-27.415693728414244" lon="-52.31001493629154"><ele>462.0</ele><time>2026-04-05T21:00:57Z</time></trkpt><trkpt lat="-27.41578035195722" lon="-52.30976259753834"><ele>462.33333333333337</ele><time>2026-04-05T21:00:58Z</time></trkpt><trkpt lat="-27.41583737956092" lon="-52.3095386357766"><ele>462.6666666666667</ele><time>2026-04-05T21:00:59Z</time></trkpt><trkpt lat="-27.41590612091687" lon="-52.309363643795876"><ele>463.0</ele><time>2026-04-05T21:01:00Z</time></trkpt><trkpt lat="-27.415983407607694" lon="-52.309209274481695"><ele>463.0</ele><time>2026-04-05T21:01:01Z</time></trkpt><trkpt lat="-27.416047061905022" lon="-52.30906530618876"><ele>463.0</ele><time>2026-04-05T21:01:02Z</time></trkpt><trkpt lat="-27.416104754064808" lon="-52.30893280399249"><ele>463.0</ele><time>2026-04-05T21:01:03Z</time></trkpt><trkpt lat="-27.41621208707639" lon="-52.30883254649622"><ele>463.0</ele><time>2026-04-05T21:01:04Z</time></trkpt><trkpt lat="-27.416324054233424" lon="-52.30869541146009"><ele>463.0</ele><time>2026-04-05T21:01:05Z</time></trkpt><trkpt lat="-27.416466155929555" lon="-52.3085215711652"><ele>463.0</ele><time>2026-04-05T21:01:06Z</time></trkpt><trkpt lat="-27.416608551644654" lon="-52.30833109223326"><ele>463.0</ele><time>2026-04-05T21:01:07Z</time></trkpt><trkpt lat="-27.416711635118233" lon="-52.308190981534445"><ele>461.75</ele><time>2026-04-05T21:01:08Z</time></trkpt><trkpt lat="-27.416798793192065" lon="-52.30807181965195"><ele>460.5</ele><time>2026-04-05T21:01:09Z</time></trkpt><trkpt lat="-27.41689040020976" lon="-52.30798343554677"><ele>459.25</ele><time>2026-04-05T21:01:10Z</time></trkpt><trkpt lat="-27.416975858213647" lon="-52.30789925395175"><ele>458.0</ele><time>2026-04-05T21:01:11Z</time></trkpt><trkpt lat="-27.41706503854824" lon="-52.3078120399465"><ele>458.0</ele><time>2026-04-05T21:01:12Z</time></trkpt><trkpt lat="-27.417149142123858" lon="-52.307729223683744"><ele>458.0</ele><time>2026-04-05T21:01:13Z</time></trkpt><trkpt lat="-27.4172371449093" lon="-52.30764309025366"><ele>458.0</ele><time>2026-04-05T21:01:14Z</time></trkpt><trkpt lat="-27.41732998745552" lon="-52.30755216546319"><ele>458.0</ele><time>2026-04-05T21:01:15Z</time></trkpt><trkpt lat="-27.417342283713527" lon="-52.30737088030543"><ele>458.0</ele><time>2026-04-05T21:01:16Z</time></trkpt><trkpt lat="-27.417383007099847" lon="-52.30726707198372"><ele>457.99999999999994</ele><time>2026-04-05T21:01:17Z</time></trkpt><trkpt lat="-27.4174072763908" lon="-52.30716533165179"><ele>457.99999999999994</ele><time>2026-04-05T21:01:18Z</time></trkpt><trkpt lat="-27.417379840550787" lon="-52.30706157138638"><ele>458.0</ele><time>2026-04-05T21:01:19Z</time></trkpt><trkpt lat="-27.417379392841553" lon="-52.3069582208618"><ele>458.0</ele><time>2026-04-05T21:01:20Z</time></trkpt><trkpt lat="-27.417285741957045" lon="-52.30691743377208"><ele>459.0</ele><time>2026-04-05T21:01:21Z</time></trkpt><trkpt lat="-27.417234655607075" lon="-52.30684720774635"><ele>460.0</ele><time>2026-04-05T21:01:22Z</time></trkpt><trkpt lat="-27.4171380282654" lon="-52.30684553392285"><ele>461.0</ele><time>2026-04-05T21:01:23Z</time></trkpt><trkpt lat="-27.417005452507542" lon="-52.30683305580992"><ele>462.0</ele><time>2026-04-05T21:01:24Z</time></trkpt><trkpt lat="-27.416813492654214" lon="-52.30681220648525"><ele>462.0</ele><time>2026-04-05T21:01:25Z</time></trkpt><trkpt lat="-27.416673276351826" lon="-52.30679738178214"><ele>462.0</ele><time>2026-04-05T21:01:26Z</time></trkpt><trkpt lat="-27.416538360150238" lon="-52.30678316332443"><ele>462.0</ele><time>2026-04-05T21:01:27Z</time></trkpt><trkpt lat="-27.41638144102576" lon="-52.30676610322145"><ele>462.0</ele><time>2026-04-05T21:01:28Z</time></trkpt><trkpt lat="-27.41625761492538" lon="-52.3067524449526"><ele>461.8</ele><time>2026-04-05T21:01:29Z</time></trkpt><trkpt lat="-27.416162593125502" lon="-52.30669928714768"><ele>461.6</ele><time>2026-04-05T21:01:30Z</time></trkpt><trkpt lat="-27.416087605693377" lon="-52.30667783399513"><ele>461.40000000000003</ele><time>2026-04-05T21:01:31Z</time></trkpt><trkpt lat="-27.41605110383649" lon="-52.306572901302424"><ele>461.20000000000005</ele><time>2026-04-05T21:01:32Z</time></trkpt><trkpt lat="-27.416020387044664" lon="-52.30646167017505"><ele>461.0</ele><time>2026-04-05T21:01:33Z</time></trkpt><trkpt lat="-27.416020097661203" lon="-52.30634040223732"><ele>461.0</ele><time>2026-04-05T21:01:33.999Z</time></trkpt><trkpt lat="-27.41605786333714" lon="-52.30620678399371"><ele>461.0</ele><time>2026-04-05T21:01:34.999Z</time></trkpt><trkpt lat="-27.41608756520018" lon="-52.30603373809092"><ele>461.0</ele><time>2026-04-05T21:01:35.999Z</time></trkpt><trkpt lat="-27.416101576345046" lon="-52.30588702670713"><ele>461.0</ele><time>2026-04-05T21:01:36.999Z</time></trkpt><trkpt lat="-27.416131164373084" lon="-52.30577256588985"><ele>461.0</ele><time>2026-04-05T21:01:37.999Z</time></trkpt><trkpt lat="-27.416161291167896" lon="-52.3056483748909"><ele>461.0</ele><time>2026-04-05T21:01:38.999Z</time></trkpt><trkpt lat="-27.41619398317067" lon="-52.305488051533665"><ele>461.0</ele><time>2026-04-05T21:01:39.999Z</time></trkpt><trkpt lat="-27.41622170599275" lon="-52.305353856357264"><ele>461.0</ele><time>2026-04-05T21:01:40.999Z</time></trkpt><trkpt lat="-27.4162423802227" lon="-52.30524644263954"><ele>461.66666666666663</ele><time>2026-04-05T21:01:41.999Z</time></trkpt><trkpt lat="-27.41625188803641" lon="-52.30517018501873"><ele>462.3333333333333</ele><time>2026-04-05T21:01:42.999Z</time></trkpt><trkpt lat="-27.41627787088458" lon="-52.30508973265888"><ele>463.0</ele><time>2026-04-05T21:01:44.999Z</time></trkpt><trkpt lat="-27.416251215701998" lon="-52.30499572081855"><ele>463.66666666666663</ele><time>2026-04-05T21:01:48.999Z</time></trkpt><trkpt lat="-27.416168554879075" lon="-52.30494585544105"><ele>464.3333333333333</ele><time>2026-04-05T21:01:50.999Z</time></trkpt><trkpt lat="-27.416090323425895" lon="-52.30492077205462"><ele>465.0</ele><time>2026-04-05T21:01:52.999Z</time></trkpt><trkpt lat="-27.416003146559916" lon="-52.304870226380785"><ele>465.0</ele><time>2026-04-05T21:01:55.999Z</time></trkpt><trkpt lat="-27.415929756810993" lon="-52.30482806043636"><ele>465.0</ele><time>2026-04-05T21:01:57.999Z</time></trkpt><trkpt lat="-27.415980605274545" lon="-52.30467780725544"><ele>465.0</ele><time>2026-04-05T21:02:08.999Z</time></trkpt><trkpt lat="-27.415992495370947" lon="-52.304769143046194"><ele>465.0</ele><time>2026-04-05T21:02:12.999Z</time></trkpt><trkpt lat="-27.41596303509083" lon="-52.304833912285694"><ele>465.0</ele><time>2026-04-05T21:03:33Z</time></trkpt><trkpt lat="-27.41604333409014" lon="-52.30480707498574"><ele>465.0</ele><time>2026-04-05T21:03:36Z</time></trkpt><trkpt lat="-27.416028301835834" lon="-52.304732025387665"><ele>465.0</ele><time>2026-04-05T21:03:37.999Z</time></trkpt><trkpt lat="-27.416004920351586" lon="-52.30465943503916"><ele>465.0</ele><time>2026-04-05T21:03:53.999Z</time></trkpt><trkpt lat="-27.416010921209132" lon="-52.304739165493594"><ele>465.0</ele><time>2026-04-05T21:04:05.999Z</time></trkpt><trkpt lat="-27.416052728131767" lon="-52.30479654145845"><ele>465.0</ele><time>2026-04-05T21:04:11.999Z</time></trkpt><trkpt lat="-27.416098994479768" lon="-52.30485702424808"><ele>465.0</ele><time>2026-04-05T21:04:18.999Z</time></trkpt><trkpt lat="-27.416046774155056" lon="-52.304804462979774"><ele>465.0</ele><time>2026-04-05T21:04:43.998Z</time></trkpt><trkpt lat="-27.416006598170032" lon="-52.30474509545115"><ele>465.0</ele><time>2026-04-05T21:05:09Z</time></trkpt><trkpt lat="-27.415974326259317" lon="-52.30481120786551"><ele>465.0</ele><time>2026-04-05T21:05:28.999Z</time></trkpt><trkpt lat="-27.41598246405757" lon="-52.304944929754384"><ele>465.0</ele><time>2026-04-05T21:05:45.999Z</time></trkpt><trkpt lat="-27.41602519673096" lon="-52.305004829129075"><ele>465.0</ele><time>2026-04-05T21:05:46.999Z</time></trkpt><trkpt lat="-27.416097898441322" lon="-52.305059762687094"><ele>465.0</ele><time>2026-04-05T21:05:47.999Z</time></trkpt><trkpt lat="-27.416191257123817" lon="-52.30512794675884"><ele>465.0</ele><time>2026-04-05T21:05:48.999Z</time></trkpt><trkpt lat="-27.416232758896232" lon="-52.305202009416284"><ele>465.0</ele><time>2026-04-05T21:05:49.999Z</time></trkpt><trkpt lat="-27.416161819937724" lon="-52.30539876207733"><ele>465.0</ele><time>2026-04-05T21:05:51.999Z</time></trkpt><trkpt lat="-27.41613301056737" lon="-52.30556926186694"><ele>465.0</ele><time>2026-04-05T21:05:52.999Z</time></trkpt><trkpt lat="-27.416111430475844" lon="-52.30569623637693"><ele>464.2</ele><time>2026-04-05T21:05:53.999Z</time></trkpt><trkpt lat="-27.416091709606935" lon="-52.3058122715464"><ele>463.4</ele><time>2026-04-05T21:05:54.999Z</time></trkpt><trkpt lat="-27.41607145472927" lon="-52.305930826462266"><ele>462.6</ele><time>2026-04-05T21:05:55.999Z</time></trkpt><trkpt lat="-27.41605735865182" lon="-52.306061460821425"><ele>461.8</ele><time>2026-04-05T21:05:56.999Z</time></trkpt><trkpt lat="-27.416029063723602" lon="-52.3061834524913"><ele>461.0</ele><time>2026-04-05T21:05:57.999Z</time></trkpt><trkpt lat="-27.41601204943589" lon="-52.306295885607646"><ele>460.99999999999994</ele><time>2026-04-05T21:05:58.999Z</time></trkpt><trkpt lat="-27.416007600671517" lon="-52.306395570409734"><ele>461.0</ele><time>2026-04-05T21:05:59.999Z</time></trkpt><trkpt lat="-27.416010837114182" lon="-52.30648730818565"><ele>461.0</ele><time>2026-04-05T21:06:00.999Z</time></trkpt><trkpt lat="-27.416011497977102" lon="-52.306571727610944"><ele>461.0</ele><time>2026-04-05T21:06:01.999Z</time></trkpt><trkpt lat="-27.41601938059068" lon="-52.30665325435871"><ele>460.99999999999994</ele><time>2026-04-05T21:06:02.999Z</time></trkpt><trkpt lat="-27.41609932414198" lon="-52.30673979151213"><ele>461.0</ele><time>2026-04-05T21:06:03.999Z</time></trkpt><trkpt lat="-27.416199902627913" lon="-52.30679024780015"><ele>461.25</ele><time>2026-04-05T21:06:04.999Z</time></trkpt><trkpt lat="-27.41629215863832" lon="-52.30683065190728"><ele>461.5</ele><time>2026-04-05T21:06:05.999Z</time></trkpt><trkpt lat="-27.416428319116083" lon="-52.30682758322785"><ele>461.75</ele><time>2026-04-05T21:06:06.999Z</time></trkpt><trkpt lat="-27.4165684196692" lon="-52.30684269637589"><ele>462.0</ele><time>2026-04-05T21:06:07.999Z</time></trkpt><trkpt lat="-27.41669877580382" lon="-52.306856437432494"><ele>462.0</ele><time>2026-04-05T21:06:08.999Z</time></trkpt><trkpt lat="-27.416830600098272" lon="-52.30687045776973"><ele>462.0</ele><time>2026-04-05T21:06:09.999Z</time></trkpt><trkpt lat="-27.416970244222515" lon="-52.30688590404414"><ele>462.0</ele><time>2026-04-05T21:06:10.999Z</time></trkpt><trkpt lat="-27.41709142557853" lon="-52.30689794585248"><ele>462.0</ele><time>2026-04-05T21:06:11.999Z</time></trkpt><trkpt lat="-27.417168422467157" lon="-52.30691766992119"><ele>462.1666666666667</ele><time>2026-04-05T21:06:12.999Z</time></trkpt><trkpt lat="-27.41725101792059" lon="-52.30695138779446"><ele>462.33333333333337</ele><time>2026-04-05T21:06:13.999Z</time></trkpt><trkpt lat="-27.417324214477798" lon="-52.30698126772199"><ele>462.5</ele><time>2026-04-05T21:06:14.999Z</time></trkpt><trkpt lat="-27.417330269167177" lon="-52.307068008847345"><ele>462.6666666666667</ele><time>2026-04-05T21:06:15.999Z</time></trkpt><trkpt lat="-27.41733634419692" lon="-52.30714137406802"><ele>462.83333333333337</ele><time>2026-04-05T21:06:16.999Z</time></trkpt><trkpt lat="-27.41734548450664" lon="-52.3072484149613"><ele>463.0</ele><time>2026-04-05T21:06:17.999Z</time></trkpt><trkpt lat="-27.417313297825007" lon="-52.307354372367385"><ele>461.75</ele><time>2026-04-05T21:06:18.998Z</time></trkpt><trkpt lat="-27.417271994288207" lon="-52.30748095909605"><ele>460.5</ele><time>2026-04-05T21:06:19.998Z</time></trkpt><trkpt lat="-27.417222964888467" lon="-52.307598662633104"><ele>459.25</ele><time>2026-04-05T21:06:20.998Z</time></trkpt><trkpt lat="-27.417147144285615" lon="-52.30769828354254"><ele>458.0</ele><time>2026-04-05T21:06:21.998Z</time></trkpt><trkpt lat="-27.41706197185066" lon="-52.30778707675176"><ele>458.0</ele><time>2026-04-05T21:06:22.998Z</time></trkpt><trkpt lat="-27.416972126413317" lon="-52.30786945701387"><ele>458.0</ele><time>2026-04-05T21:06:23.998Z</time></trkpt><trkpt lat="-27.416881227236942" lon="-52.30794656331048"><ele>458.0</ele><time>2026-04-05T21:06:24.998Z</time></trkpt><trkpt lat="-27.4167821315999" lon="-52.30804481048164"><ele>458.0</ele><time>2026-04-05T21:06:25.998Z</time></trkpt><trkpt lat="-27.416685282511068" lon="-52.308148952083734"><ele>459.25</ele><time>2026-04-05T21:06:26.998Z</time></trkpt><trkpt lat="-27.41659919467466" lon="-52.30825245984668"><ele>460.5</ele><time>2026-04-05T21:06:27.998Z</time></trkpt><trkpt lat="-27.416517706482306" lon="-52.30836385955505"><ele>461.75</ele><time>2026-04-05T21:06:28.998Z</time></trkpt><trkpt lat="-27.416438911129394" lon="-52.30846144334567"><ele>463.0</ele><time>2026-04-05T21:06:29.998Z</time></trkpt><trkpt lat="-27.41635870365037" lon="-52.30856160014755"><ele>463.0</ele><time>2026-04-05T21:06:30.998Z</time></trkpt><trkpt lat="-27.41627887567466" lon="-52.30866708823861"><ele>463.0</ele><time>2026-04-05T21:06:31.998Z</time></trkpt><trkpt lat="-27.41619723422098" lon="-52.30877041325535"><ele>463.0</ele><time>2026-04-05T21:06:32.998Z</time></trkpt><trkpt lat="-27.416114130536208" lon="-52.30887451706742"><ele>463.0</ele><time>2026-04-05T21:06:33.998Z</time></trkpt><trkpt lat="-27.41604367766397" lon="-52.308984270491656"><ele>463.0</ele><time>2026-04-05T21:06:34.998Z</time></trkpt><trkpt lat="-27.415979422255035" lon="-52.309102762019954"><ele>463.0</ele><time>2026-04-05T21:06:35.998Z</time></trkpt><trkpt lat="-27.415919890219424" lon="-52.30925547604451"><ele>463.0</ele><time>2026-04-05T21:06:36.998Z</time></trkpt><trkpt lat="-27.415854246574913" lon="-52.3094242345245"><ele>463.0</ele><time>2026-04-05T21:06:37.998Z</time></trkpt><trkpt lat="-27.415793066545906" lon="-52.3096175062339"><ele>462.6666666666667</ele><time>2026-04-05T21:06:38.998Z</time></trkpt><trkpt lat="-27.415729317903065" lon="-52.30981667150733"><ele>462.33333333333337</ele><time>2026-04-05T21:06:39.998Z</time></trkpt><trkpt lat="-27.415673198410985" lon="-52.310011064884755"><ele>462.0</ele><time>2026-04-05T21:06:40.998Z</time></trkpt><trkpt lat="-27.415617743285928" lon="-52.31019054082585"><ele>462.0</ele><time>2026-04-05T21:06:41.998Z</time></trkpt><trkpt lat="-27.415569757534453" lon="-52.31036378305927"><ele>462.0</ele><time>2026-04-05T21:06:42.998Z</time></trkpt><trkpt lat="-27.415500157295725" lon="-52.31053064561876"><ele>462.0</ele><time>2026-04-05T21:06:43.998Z</time></trkpt><trkpt lat="-27.41543895110688" lon="-52.31069884928192"><ele>461.33333333333337</ele><time>2026-04-05T21:06:44.998Z</time></trkpt><trkpt lat="-27.415377053492648" lon="-52.31086754991291"><ele>460.6666666666667</ele><time>2026-04-05T21:06:45.998Z</time></trkpt><trkpt lat="-27.41533044929066" lon="-52.311041436373046"><ele>460.0</ele><time>2026-04-05T21:06:46.998Z</time></trkpt><trkpt lat="-27.415270533103723" lon="-52.311190174499906"><ele>460.0</ele><time>2026-04-05T21:06:47.998Z</time></trkpt><trkpt lat="-27.41526042093992" lon="-52.311329625854526"><ele>460.0</ele><time>2026-04-05T21:06:48.998Z</time></trkpt><trkpt lat="-27.41522401918037" lon="-52.311445882328954"><ele>460.0</ele><time>2026-04-05T21:06:49.998Z</time></trkpt><trkpt lat="-27.415229368171605" lon="-52.31157245262225"><ele>460.0</ele><time>2026-04-05T21:06:50.998Z</time></trkpt><trkpt lat="-27.41523587501617" lon="-52.31170149572626"><ele>460.5</ele><time>2026-04-05T21:06:51.998Z</time></trkpt><trkpt lat="-27.415274300103945" lon="-52.31185247034799"><ele>461.0</ele><time>2026-04-05T21:06:52.998Z</time></trkpt><trkpt lat="-27.415310910158162" lon="-52.312004354307646"><ele>461.5</ele><time>2026-04-05T21:06:53.998Z</time></trkpt><trkpt lat="-27.415348714526285" lon="-52.31216033704129"><ele>462.0</ele><time>2026-04-05T21:06:54.998Z</time></trkpt><trkpt lat="-27.41538637655301" lon="-52.31231278999362"><ele>462.25</ele><time>2026-04-05T21:06:55.998Z</time></trkpt><trkpt lat="-27.415412302143302" lon="-52.31246155724436"><ele>462.5</ele><time>2026-04-05T21:06:56.998Z</time></trkpt><trkpt lat="-27.415434908226075" lon="-52.31264163903169"><ele>462.75</ele><time>2026-04-05T21:06:57.998Z</time></trkpt><trkpt lat="-27.41547667686672" lon="-52.31279185955639"><ele>463.0</ele><time>2026-04-05T21:06:58.998Z</time></trkpt><trkpt lat="-27.415512623643725" lon="-52.312921205939844"><ele>463.2</ele><time>2026-04-05T21:06:59.998Z</time></trkpt><trkpt lat="-27.415548308994605" lon="-52.31305091713159"><ele>463.4</ele><time>2026-04-05T21:07:01Z</time></trkpt><trkpt lat="-27.41557273234218" lon="-52.3131396926192"><ele>463.59999999999997</ele><time>2026-04-05T21:07:02Z</time></trkpt><trkpt lat="-27.415588777444082" lon="-52.31321029551469"><ele>463.79999999999995</ele><time>2026-04-05T21:07:05Z</time></trkpt><trkpt lat="-27.41548170801805" lon="-52.31326110466595"><ele>464.0</ele><time>2026-04-05T21:07:07Z</time></trkpt><trkpt lat="-27.415400404956078" lon="-52.313319907254225"><ele>464.0</ele><time>2026-04-05T21:07:08Z</time></trkpt><trkpt lat="-27.415307638811882" lon="-52.313408989113775"><ele>464.0</ele><time>2026-04-05T21:07:09Z</time></trkpt><trkpt lat="-27.41520136571393" lon="-52.313513091409526"><ele>464.0</ele><time>2026-04-05T21:07:10Z</time></trkpt><trkpt lat="-27.41511879765154" lon="-52.3135988288062"><ele>464.0</ele><time>2026-04-05T21:07:11Z</time></trkpt><trkpt lat="-27.41504354711648" lon="-52.31366847739365"><ele>464.0</ele><time>2026-04-05T21:07:12Z</time></trkpt><trkpt lat="-27.414990584655165" lon="-52.313754504251094"><ele>464.0</ele><time>2026-04-05T21:07:13Z</time></trkpt><trkpt lat="-27.41490724533202" lon="-52.31383253009296"><ele>464.0</ele><time>2026-04-05T21:07:14Z</time></trkpt><trkpt lat="-27.41485067174961" lon="-52.313948380001094"><ele>464.0</ele><time>2026-04-05T21:07:15Z</time></trkpt><trkpt lat="-27.414792896050894" lon="-52.314066945923585"><ele>464.0</ele><time>2026-04-05T21:07:16Z</time></trkpt><trkpt lat="-27.41472662006137" lon="-52.31418514472461"><ele>465.0</ele><time>2026-04-05T21:07:17Z</time></trkpt><trkpt lat="-27.414657371748547" lon="-52.31430489775011"><ele>466.0</ele><time>2026-04-05T21:07:18Z</time></trkpt><trkpt lat="-27.414584467687106" lon="-52.31442233179979"><ele>467.0</ele><time>2026-04-05T21:07:19Z</time></trkpt><trkpt lat="-27.414509391056818" lon="-52.31454874045327"><ele>468.0</ele><time>2026-04-05T21:07:20Z</time></trkpt><trkpt lat="-27.414445818747787" lon="-52.31467362209716"><ele>470.75</ele><time>2026-04-05T21:07:21Z</time></trkpt><trkpt lat="-27.414378882068274" lon="-52.3148000464865"><ele>473.5</ele><time>2026-04-05T21:07:22Z</time></trkpt><trkpt lat="-27.41430730838136" lon="-52.31492922070592"><ele>476.25</ele><time>2026-04-05T21:07:23Z</time></trkpt><trkpt lat="-27.414228598096773" lon="-52.3150500440085"><ele>479.0</ele><time>2026-04-05T21:07:24Z</time></trkpt><trkpt lat="-27.414161779269165" lon="-52.31517249656321"><ele>479.0</ele><time>2026-04-05T21:07:25Z</time></trkpt><trkpt lat="-27.41411818705532" lon="-52.31528464112633"><ele>479.0</ele><time>2026-04-05T21:07:26Z</time></trkpt><trkpt lat="-27.414096630052754" lon="-52.315376563983165"><ele>479.0</ele><time>2026-04-05T21:07:26.999Z</time></trkpt><trkpt lat="-27.414100032856282" lon="-52.31548195840327"><ele>479.0</ele><time>2026-04-05T21:07:27.999Z</time></trkpt><trkpt lat="-27.414137315950466" lon="-52.31558654529317"><ele>479.0</ele><time>2026-04-05T21:07:28.999Z</time></trkpt><trkpt lat="-27.414160004026222" lon="-52.31568500425965"><ele>481.3333333333333</ele><time>2026-04-05T21:07:29.999Z</time></trkpt><trkpt lat="-27.41418107986213" lon="-52.3157610138312"><ele>483.66666666666663</ele><time>2026-04-05T21:07:30.999Z</time></trkpt><trkpt lat="-27.414218171109187" lon="-52.3158782098811"><ele>486.0</ele><time>2026-04-05T21:07:32.999Z</time></trkpt><trkpt lat="-27.41463831647808" lon="-52.31578351587797"><ele>487.33333333333337</ele><time>2026-04-05T21:07:33.999Z</time></trkpt><trkpt lat="-27.414810716567406" lon="-52.31575877866532"><ele>488.6666666666667</ele><time>2026-04-05T21:07:34.999Z</time></trkpt><trkpt lat="-27.414952336495574" lon="-52.3157532100082"><ele>490.0</ele><time>2026-04-05T21:07:35.999Z</time></trkpt><trkpt lat="-27.41509417712517" lon="-52.31574580421126"><ele>490.0</ele><time>2026-04-05T21:07:36.999Z</time></trkpt><trkpt lat="-27.415232025264164" lon="-52.315733747993995"><ele>490.0</ele><time>2026-04-05T21:07:37.999Z</time></trkpt><trkpt lat="-27.415360860559954" lon="-52.315722196169695"><ele>490.0</ele><time>2026-04-05T21:07:38.999Z</time></trkpt><trkpt lat="-27.41547037640027" lon="-52.315717161849406"><ele>490.0</ele><time>2026-04-05T21:07:39.999Z</time></trkpt><trkpt lat="-27.415554939214037" lon="-52.31571102620089"><ele>492.0</ele><time>2026-04-05T21:07:40.999Z</time></trkpt><trkpt lat="-27.415622144400814" lon="-52.315702033459125"><ele>492.0</ele><time>2026-04-05T21:07:42.999Z</time></trkpt><trkpt lat="-27.415611112761283" lon="-52.31563168475565"><ele>492.0</ele><time>2026-04-05T21:07:46.999Z</time></trkpt></trkseg></trk></gpx>